AFR29 KLAX-LFPG
Flight info
| Callsign | AFR29 |
|---|---|
| Flight time | 10h 27m |
| Altitude | 35000 |
| Route | ORCKA5 LAS Q70 BLIPP Q842 WINEN DCT KU57O DCT KU81S DCT KD90U DCT KU09W DCT OTLUR/N0481F370 DCT 5230N09000W 55N080W 57N070W DCT LAKES/M085F370 DCT TOXIT DCT 60N050W/M085F390 60N040W 59N030W 57N020W DCT PIKIL/N0480F390 DCT SOVED DCT NIBOG DCT NIPIT/N0479F410 DCT BOFUM Q37 DONAX DCT KEPAD L151 MID Y803 SFD UM605 BIBAX |
| Aircraft | A359/H-SDE2E3GHIJ3J4J5LM1ORWXY/LB1D1 |
Departure
| Time | 2026-04-23 19:08 |
|---|---|
| Airport | Los Angeles International Airport (KLAX) |
Arrival
| Time | 2026-04-24 05:36 |
|---|---|
| Airport | Charles de Gaulle International Airport (LFPG) |
| Time | Latitude | Longitude | Altitude | Speed | Heading |
|---|---|---|---|---|---|
| 2026-04-23 18:10 | 33.94415 | -118.41579 | 99 ft | 0 kts | 83° |
| 2026-04-23 18:56 | 33.94414 | -118.41590 | 115 ft | 4 kts | 83° |
| 2026-04-23 18:57 | 33.94411 | -118.41622 | 99 ft | 4 kts | 83° |
| 2026-04-23 18:57 | 33.94404 | -118.41652 | 98 ft | 4 kts | 56° |
| 2026-04-23 18:57 | 33.94385 | -118.41673 | 98 ft | 4 kts | 21° |
| 2026-04-23 18:57 | 33.94366 | -118.41678 | 99 ft | 0 kts | 352° |
| 2026-04-23 19:00 | 33.94383 | -118.41680 | 103 ft | 13 kts | 354° |
| 2026-04-23 19:00 | 33.94521 | -118.41701 | 99 ft | 21 kts | 353° |
| 2026-04-23 19:00 | 33.94625 | -118.41710 | 101 ft | 10 kts | 14° |
| 2026-04-23 19:01 | 33.94654 | -118.41647 | 99 ft | 9 kts | 79° |
| 2026-04-23 19:01 | 33.94661 | -118.41573 | 102 ft | 9 kts | 84° |
| 2026-04-23 19:01 | 33.94669 | -118.41497 | 100 ft | 9 kts | 83° |
| 2026-04-23 19:01 | 33.94677 | -118.41418 | 101 ft | 10 kts | 83° |
| 2026-04-23 19:02 | 33.94683 | -118.41359 | 101 ft | 11 kts | 83° |
| 2026-04-23 19:02 | 33.94702 | -118.41224 | 101 ft | 13 kts | 74° |
| 2026-04-23 19:02 | 33.94728 | -118.41124 | 103 ft | 12 kts | 82° |
| 2026-04-23 19:02 | 33.94736 | -118.41022 | 99 ft | 12 kts | 83° |
| 2026-04-23 19:03 | 33.94747 | -118.40920 | 103 ft | 12 kts | 82° |
| 2026-04-23 19:03 | 33.94758 | -118.40818 | 101 ft | 12 kts | 83° |
| 2026-04-23 19:03 | 33.94768 | -118.40714 | 100 ft | 13 kts | 83° |
| 2026-04-23 19:03 | 33.94780 | -118.40601 | 101 ft | 17 kts | 83° |
| 2026-04-23 19:04 | 33.94793 | -118.40460 | 101 ft | 17 kts | 83° |
| 2026-04-23 19:04 | 33.94810 | -118.40322 | 99 ft | 17 kts | 81° |
| 2026-04-23 19:04 | 33.94831 | -118.40189 | 102 ft | 17 kts | 81° |
| 2026-04-23 19:04 | 33.94839 | -118.40109 | 99 ft | 10 kts | 79° |
| 2026-04-23 19:05 | 33.94871 | -118.40073 | 100 ft | 1 kts | 5° |
| 2026-04-23 19:05 | 33.94895 | -118.40077 | 101 ft | 8 kts | 358° |
| 2026-04-23 19:05 | 33.94921 | -118.40042 | 102 ft | 5 kts | 84° |
| 2026-04-23 19:05 | 33.94925 | -118.39995 | 99 ft | 6 kts | 83° |
| 2026-04-23 19:06 | 33.94926 | -118.39979 | 99 ft | 0 kts | 83° |
| 2026-04-23 19:06 | 33.94945 | -118.39933 | 100 ft | 16 kts | 45° |
| 2026-04-23 19:07 | 33.95038 | -118.39941 | 102 ft | 13 kts | 292° |
| 2026-04-23 19:07 | 33.95033 | -118.40040 | 103 ft | 8 kts | 263° |
| 2026-04-23 19:07 | 33.95033 | -118.40048 | 103 ft | 0 kts | 263° |
| 2026-04-23 19:07 | 33.95033 | -118.40049 | 103 ft | 2 kts | 263° |
| 2026-04-23 19:08 | 33.95012 | -118.40248 | 104 ft | 56 kts | 263° |
| 2026-04-23 19:08 | 33.94932 | -118.41021 | 105 ft | 128 kts | 263° |
| 2026-04-23 19:08 | 33.94796 | -118.42331 | 223 ft | 178 kts | 262° |
| 2026-04-23 19:08 | 33.94611 | -118.43861 | 836 ft | 191 kts | 261° |
| 2026-04-23 19:09 | 33.94385 | -118.45477 | 1629 ft | 196 kts | 259° |
| 2026-04-23 19:09 | 33.94161 | -118.47126 | 2054 ft | 206 kts | 261° |
| 2026-04-23 19:09 | 33.93979 | -118.48900 | 2297 ft | 221 kts | 268° |
| 2026-04-23 19:09 | 33.94275 | -118.50752 | 2540 ft | 236 kts | 297° |
| 2026-04-23 19:10 | 33.95446 | -118.52175 | 2774 ft | 250 kts | 335° |
| 2026-04-23 19:10 | 33.97159 | -118.52468 | 3147 ft | 256 kts | 11° |
| 2026-04-23 19:10 | 33.98691 | -118.51483 | 3647 ft | 258 kts | 47° |
| 2026-04-23 19:10 | 33.99571 | -118.49585 | 4263 ft | 258 kts | 70° |
| 2026-04-23 19:11 | 34.00210 | -118.47561 | 4908 ft | 259 kts | 67° |
| 2026-04-23 19:11 | 34.00933 | -118.45594 | 5425 ft | 262 kts | 64° |
| 2026-04-23 19:11 | 34.01751 | -118.43582 | 6057 ft | 263 kts | 63° |
| 2026-04-23 19:11 | 34.02594 | -118.41615 | 6629 ft | 266 kts | 62° |
| 2026-04-23 19:12 | 34.03476 | -118.39617 | 7121 ft | 273 kts | 60° |
| 2026-04-23 19:12 | 34.04383 | -118.37585 | 7626 ft | 280 kts | 60° |
| 2026-04-23 19:12 | 34.05321 | -118.35493 | 8121 ft | 287 kts | 59° |
| 2026-04-23 19:12 | 34.06284 | -118.33355 | 8669 ft | 292 kts | 60° |
| 2026-04-23 19:13 | 34.07257 | -118.31197 | 9238 ft | 295 kts | 59° |
| 2026-04-23 19:13 | 34.08243 | -118.29013 | 9820 ft | 299 kts | 59° |
| 2026-04-23 19:13 | 34.09238 | -118.26810 | 10251 ft | 308 kts | 59° |
| 2026-04-23 19:13 | 34.10290 | -118.24485 | 10501 ft | 323 kts | 59° |
| 2026-04-23 19:14 | 34.11405 | -118.22017 | 10764 ft | 338 kts | 59° |
| 2026-04-23 19:14 | 34.12552 | -118.19473 | 11025 ft | 353 kts | 59° |
| 2026-04-23 19:14 | 34.13749 | -118.16817 | 11267 ft | 366 kts | 59° |
| 2026-04-23 19:14 | 34.14985 | -118.14069 | 11521 ft | 379 kts | 59° |
| 2026-04-23 19:15 | 34.16264 | -118.11224 | 11862 ft | 389 kts | 59° |
| 2026-04-23 19:15 | 34.17561 | -118.08333 | 12287 ft | 395 kts | 59° |
| 2026-04-23 19:15 | 34.18876 | -118.05401 | 12791 ft | 398 kts | 59° |
| 2026-04-23 19:15 | 34.20183 | -118.02480 | 13304 ft | 401 kts | 59° |
| 2026-04-23 19:16 | 34.21518 | -117.99495 | 13747 ft | 407 kts | 59° |
| 2026-04-23 19:16 | 34.22870 | -117.96475 | 14156 ft | 411 kts | 59° |
| 2026-04-23 19:16 | 34.24233 | -117.93426 | 14579 ft | 415 kts | 59° |
| 2026-04-23 19:17 | 34.27001 | -117.87240 | 15460 ft | 422 kts | 59° |
| 2026-04-23 19:17 | 34.28403 | -117.84101 | 15882 ft | 426 kts | 59° |
| 2026-04-23 19:17 | 34.29810 | -117.80945 | 16357 ft | 430 kts | 59° |
| 2026-04-23 19:17 | 34.31233 | -117.77746 | 16782 ft | 434 kts | 59° |
| 2026-04-23 19:18 | 34.32662 | -117.74520 | 17189 ft | 437 kts | 58° |
| 2026-04-23 19:18 | 34.34115 | -117.71265 | 17657 ft | 440 kts | 58° |
| 2026-04-23 19:18 | 34.35716 | -117.68105 | 18087 ft | 441 kts | 52° |
| 2026-04-23 19:18 | 34.37500 | -117.65069 | 18501 ft | 444 kts | 50° |
| 2026-04-23 19:19 | 34.41157 | -117.58973 | 19233 ft | 451 kts | 50° |
| 2026-04-23 19:19 | 34.42998 | -117.55892 | 19649 ft | 453 kts | 50° |
| 2026-04-23 19:20 | 34.46712 | -117.49665 | 20512 ft | 459 kts | 50° |
| 2026-04-23 19:20 | 34.48585 | -117.46518 | 20926 ft | 462 kts | 50° |
| 2026-04-23 19:20 | 34.50468 | -117.43351 | 21310 ft | 465 kts | 50° |
| 2026-04-23 19:20 | 34.52360 | -117.40167 | 21724 ft | 468 kts | 50° |
| 2026-04-23 19:21 | 34.54271 | -117.36947 | 22132 ft | 470 kts | 50° |
| 2026-04-23 19:21 | 34.58116 | -117.30457 | 22952 ft | 476 kts | 50° |
| 2026-04-23 19:21 | 34.60051 | -117.27188 | 23361 ft | 479 kts | 50° |
| 2026-04-23 19:22 | 34.62001 | -117.23891 | 23748 ft | 482 kts | 50° |
| 2026-04-23 19:22 | 34.63964 | -117.20567 | 24067 ft | 485 kts | 50° |
| 2026-04-23 19:22 | 34.67917 | -117.13867 | 24650 ft | 492 kts | 50° |
| 2026-04-23 19:23 | 34.69912 | -117.10479 | 24980 ft | 494 kts | 51° |
| 2026-04-23 19:23 | 34.71918 | -117.07071 | 25338 ft | 497 kts | 51° |
| 2026-04-23 19:23 | 34.73932 | -117.03645 | 25661 ft | 500 kts | 51° |
| 2026-04-23 19:24 | 34.77991 | -116.96730 | 26330 ft | 505 kts | 51° |
| 2026-04-23 19:24 | 34.80002 | -116.93298 | 26662 ft | 507 kts | 51° |
| 2026-04-23 19:24 | 34.84121 | -116.86261 | 27306 ft | 513 kts | 51° |
| 2026-04-23 19:25 | 34.88280 | -116.79143 | 27891 ft | 518 kts | 51° |
| 2026-04-23 19:25 | 34.92583 | -116.72069 | 28496 ft | 520 kts | 45° |
| 2026-04-23 19:26 | 34.97474 | -116.65551 | 29062 ft | 523 kts | 43° |
| 2026-04-23 19:26 | 34.99952 | -116.62299 | 29341 ft | 525 kts | 43° |
| 2026-04-23 19:27 | 35.04939 | -116.55735 | 29885 ft | 530 kts | 43° |
| 2026-04-23 19:27 | 35.12510 | -116.45734 | 30469 ft | 537 kts | 43° |
| 2026-04-23 19:28 | 35.17588 | -116.39005 | 30952 ft | 539 kts | 43° |
| 2026-04-23 19:28 | 35.22674 | -116.32252 | 31473 ft | 539 kts | 43° |
| 2026-04-23 19:29 | 35.25214 | -116.28874 | 31767 ft | 539 kts | 43° |
| 2026-04-23 19:29 | 35.30279 | -116.22129 | 32274 ft | 538 kts | 43° |
| 2026-04-23 19:30 | 35.35345 | -116.15370 | 32762 ft | 538 kts | 43° |
| 2026-04-23 19:30 | 35.37867 | -116.12001 | 33031 ft | 537 kts | 43° |
| 2026-04-23 19:30 | 35.42914 | -116.05246 | 33531 ft | 536 kts | 43° |
| 2026-04-23 19:31 | 35.45427 | -116.01879 | 33752 ft | 536 kts | 43° |
| 2026-04-23 19:31 | 35.47943 | -115.98503 | 34014 ft | 535 kts | 43° |
| 2026-04-23 19:31 | 35.50452 | -115.95134 | 34217 ft | 535 kts | 43° |
| 2026-04-23 19:31 | 35.52929 | -115.91804 | 34368 ft | 535 kts | 43° |
| 2026-04-23 19:32 | 35.55440 | -115.88426 | 34538 ft | 536 kts | 43° |
| 2026-04-23 19:32 | 35.57981 | -115.85004 | 34702 ft | 535 kts | 43° |
| 2026-04-23 19:32 | 35.60490 | -115.81622 | 34882 ft | 535 kts | 43° |
| 2026-04-23 19:32 | 35.62995 | -115.78241 | 35026 ft | 535 kts | 43° |
| 2026-04-23 19:33 | 35.65496 | -115.74845 | 35066 ft | 538 kts | 44° |
| 2026-04-23 19:33 | 35.72980 | -115.64534 | 35065 ft | 541 kts | 44° |
| 2026-04-23 19:34 | 35.77995 | -115.57615 | 35074 ft | 542 kts | 44° |
| 2026-04-23 19:35 | 35.85518 | -115.47214 | 35078 ft | 543 kts | 43° |
| 2026-04-23 19:35 | 35.90544 | -115.40254 | 35075 ft | 544 kts | 43° |
| 2026-04-23 19:36 | 35.95578 | -115.33265 | 35080 ft | 544 kts | 43° |
| 2026-04-23 19:36 | 36.00605 | -115.26271 | 35075 ft | 545 kts | 43° |
| 2026-04-23 19:37 | 36.05623 | -115.19277 | 35064 ft | 546 kts | 43° |
| 2026-04-23 19:37 | 36.10964 | -115.12678 | 35064 ft | 540 kts | 36° |
| 2026-04-23 19:38 | 36.16617 | -115.06567 | 35034 ft | 539 kts | 34° |
| 2026-04-23 19:38 | 36.22316 | -115.00509 | 35028 ft | 541 kts | 34° |
| 2026-04-23 19:39 | 36.28016 | -114.94398 | 35019 ft | 543 kts | 34° |
| 2026-04-23 19:39 | 36.33707 | -114.88246 | 35006 ft | 543 kts | 35° |
| 2026-04-23 19:40 | 36.39395 | -114.82072 | 34989 ft | 543 kts | 35° |
| 2026-04-23 19:40 | 36.45079 | -114.75888 | 35016 ft | 543 kts | 34° |
| 2026-04-23 19:41 | 36.50762 | -114.69705 | 34973 ft | 544 kts | 34° |
| 2026-04-23 19:41 | 36.56467 | -114.63487 | 34968 ft | 544 kts | 34° |
| 2026-04-23 19:42 | 36.62155 | -114.57272 | 34973 ft | 544 kts | 34° |
| 2026-04-23 19:42 | 36.67845 | -114.51042 | 34973 ft | 544 kts | 34° |
| 2026-04-23 19:43 | 36.73806 | -114.45385 | 34982 ft | 535 kts | 26° |
| 2026-04-23 19:43 | 36.80061 | -114.40373 | 34980 ft | 534 kts | 24° |
| 2026-04-23 19:44 | 36.86359 | -114.35456 | 34980 ft | 534 kts | 24° |
| 2026-04-23 19:44 | 36.92664 | -114.30527 | 34977 ft | 535 kts | 24° |
| 2026-04-23 19:45 | 36.98974 | -114.25568 | 34980 ft | 536 kts | 24° |
| 2026-04-23 19:45 | 37.05270 | -114.20596 | 34981 ft | 535 kts | 24° |
| 2026-04-23 19:46 | 37.11531 | -114.15643 | 34987 ft | 536 kts | 24° |
| 2026-04-23 19:46 | 37.17823 | -114.10656 | 34987 ft | 536 kts | 24° |
| 2026-04-23 19:47 | 37.23101 | -114.06464 | 35005 ft | 536 kts | 24° |
| 2026-04-23 19:47 | 37.30428 | -114.00635 | 34996 ft | 536 kts | 24° |
| 2026-04-23 19:48 | 37.36733 | -113.95609 | 35007 ft | 537 kts | 24° |
| 2026-04-23 19:48 | 37.43043 | -113.90565 | 35001 ft | 537 kts | 24° |
| 2026-04-23 19:49 | 37.49343 | -113.85521 | 35009 ft | 537 kts | 24° |
| 2026-04-23 19:49 | 37.55649 | -113.80462 | 35043 ft | 537 kts | 24° |
| 2026-04-23 19:50 | 37.61943 | -113.75401 | 35022 ft | 537 kts | 24° |
| 2026-04-23 19:50 | 37.68239 | -113.70331 | 35015 ft | 537 kts | 24° |
| 2026-04-23 19:51 | 37.74529 | -113.65254 | 35020 ft | 537 kts | 24° |
| 2026-04-23 19:51 | 37.79766 | -113.61019 | 35003 ft | 537 kts | 24° |
| 2026-04-23 19:52 | 37.86051 | -113.55926 | 35010 ft | 536 kts | 24° |
| 2026-04-23 19:52 | 37.92318 | -113.50837 | 35008 ft | 535 kts | 24° |
| 2026-04-23 19:53 | 37.98500 | -113.45514 | 35001 ft | 540 kts | 28° |
| 2026-04-23 19:53 | 38.04507 | -113.39771 | 35005 ft | 542 kts | 29° |
| 2026-04-23 19:54 | 38.10523 | -113.34000 | 35009 ft | 541 kts | 29° |
| 2026-04-23 19:54 | 38.16544 | -113.28305 | 35012 ft | 539 kts | 28° |
| 2026-04-23 19:55 | 38.22570 | -113.22643 | 35035 ft | 539 kts | 28° |
| 2026-04-23 19:55 | 38.28598 | -113.16974 | 35064 ft | 539 kts | 28° |
| 2026-04-23 19:56 | 38.34626 | -113.11290 | 35095 ft | 539 kts | 28° |
| 2026-04-23 19:56 | 38.40645 | -113.05598 | 35100 ft | 539 kts | 29° |
| 2026-04-23 19:57 | 38.46629 | -112.99926 | 35076 ft | 539 kts | 29° |
| 2026-04-23 19:57 | 38.52642 | -112.94215 | 35068 ft | 539 kts | 29° |
| 2026-04-23 19:58 | 38.58656 | -112.88492 | 35050 ft | 539 kts | 29° |
| 2026-04-23 19:58 | 38.64660 | -112.82765 | 35029 ft | 536 kts | 30° |
| 2026-04-23 19:59 | 38.70618 | -112.77067 | 35021 ft | 534 kts | 30° |
| 2026-04-23 19:59 | 38.76562 | -112.71376 | 35027 ft | 534 kts | 30° |
| 2026-04-23 20:00 | 38.82514 | -112.65665 | 35023 ft | 534 kts | 30° |
| 2026-04-23 20:00 | 38.88456 | -112.59950 | 35053 ft | 534 kts | 31° |
| 2026-04-23 20:01 | 38.94374 | -112.54240 | 35026 ft | 529 kts | 31° |
| 2026-04-23 20:01 | 39.00253 | -112.48561 | 35105 ft | 528 kts | 31° |
| 2026-04-23 20:02 | 39.06126 | -112.42879 | 35105 ft | 528 kts | 31° |
| 2026-04-23 20:02 | 39.11998 | -112.37184 | 35090 ft | 529 kts | 31° |
| 2026-04-23 20:03 | 39.17853 | -112.31490 | 35077 ft | 524 kts | 31° |
| 2026-04-23 20:03 | 39.23633 | -112.25852 | 35060 ft | 520 kts | 31° |
| 2026-04-23 20:04 | 39.29399 | -112.20225 | 35045 ft | 520 kts | 31° |
| 2026-04-23 20:04 | 39.35166 | -112.14588 | 35048 ft | 520 kts | 31° |
| 2026-04-23 20:05 | 39.40929 | -112.08938 | 35073 ft | 520 kts | 32° |
| 2026-04-23 20:05 | 39.46676 | -112.03289 | 35046 ft | 518 kts | 32° |
| 2026-04-23 20:06 | 39.52412 | -111.97669 | 35053 ft | 516 kts | 31° |
| 2026-04-23 20:06 | 39.58245 | -111.92258 | 35055 ft | 515 kts | 30° |
| 2026-04-23 20:07 | 39.64097 | -111.86903 | 35052 ft | 515 kts | 30° |
| 2026-04-23 20:07 | 39.69897 | -111.81543 | 35061 ft | 515 kts | 31° |
| 2026-04-23 20:08 | 39.75720 | -111.76116 | 35064 ft | 515 kts | 31° |
| 2026-04-23 20:08 | 39.81544 | -111.70669 | 35058 ft | 515 kts | 31° |
| 2026-04-23 20:09 | 39.87357 | -111.65222 | 35061 ft | 515 kts | 31° |
| 2026-04-23 20:09 | 39.93169 | -111.59765 | 35073 ft | 515 kts | 31° |
| 2026-04-23 20:10 | 39.98005 | -111.55217 | 35060 ft | 515 kts | 31° |
| 2026-04-23 20:10 | 40.04794 | -111.48818 | 35066 ft | 516 kts | 31° |
| 2026-04-23 20:11 | 40.10589 | -111.43342 | 35071 ft | 516 kts | 31° |
| 2026-04-23 20:11 | 40.16418 | -111.37821 | 35073 ft | 516 kts | 31° |
| 2026-04-23 20:12 | 40.22222 | -111.32312 | 35076 ft | 516 kts | 31° |
| 2026-04-23 20:12 | 40.28028 | -111.26789 | 35071 ft | 516 kts | 31° |
| 2026-04-23 20:13 | 40.33826 | -111.21264 | 35074 ft | 516 kts | 31° |
| 2026-04-23 20:13 | 40.39627 | -111.15723 | 35073 ft | 516 kts | 31° |
| 2026-04-23 20:14 | 40.45420 | -111.10178 | 35074 ft | 515 kts | 31° |
| 2026-04-23 20:14 | 40.51197 | -111.04634 | 35072 ft | 514 kts | 31° |
| 2026-04-23 20:15 | 40.56966 | -110.99089 | 35060 ft | 514 kts | 31° |
| 2026-04-23 20:15 | 40.62735 | -110.93530 | 35063 ft | 514 kts | 31° |
| 2026-04-23 20:16 | 40.68496 | -110.87966 | 35086 ft | 514 kts | 31° |
| 2026-04-23 20:16 | 40.74208 | -110.82440 | 35054 ft | 513 kts | 31° |
| 2026-04-23 20:17 | 40.80007 | -110.76813 | 35046 ft | 513 kts | 31° |
| 2026-04-23 20:17 | 40.85760 | -110.71222 | 35026 ft | 514 kts | 31° |
| 2026-04-23 20:18 | 40.91510 | -110.65623 | 35037 ft | 514 kts | 31° |
| 2026-04-23 20:18 | 40.97223 | -110.60046 | 35002 ft | 513 kts | 31° |
| 2026-04-23 20:19 | 41.02964 | -110.54427 | 35015 ft | 513 kts | 31° |
| 2026-04-23 20:19 | 41.08709 | -110.48793 | 35010 ft | 514 kts | 31° |
| 2026-04-23 20:20 | 41.14446 | -110.43155 | 35017 ft | 514 kts | 31° |
| 2026-04-23 20:20 | 41.20198 | -110.37489 | 35038 ft | 514 kts | 31° |
| 2026-04-23 20:21 | 41.25929 | -110.31829 | 35039 ft | 514 kts | 31° |
| 2026-04-23 20:21 | 41.31665 | -110.26155 | 35038 ft | 514 kts | 31° |
| 2026-04-23 20:22 | 41.37404 | -110.20464 | 35031 ft | 514 kts | 31° |
| 2026-04-23 20:22 | 41.43128 | -110.14774 | 35032 ft | 514 kts | 31° |
| 2026-04-23 20:23 | 41.48855 | -110.09071 | 34932 ft | 514 kts | 31° |
| 2026-04-23 20:23 | 41.54589 | -110.03346 | 34920 ft | 515 kts | 31° |
| 2026-04-23 20:24 | 41.60318 | -109.97611 | 34914 ft | 515 kts | 31° |
| 2026-04-23 20:24 | 41.66045 | -109.91866 | 34917 ft | 515 kts | 31° |
| 2026-04-23 20:25 | 41.71770 | -109.86110 | 34911 ft | 515 kts | 31° |
| 2026-04-23 20:25 | 41.77502 | -109.80337 | 34911 ft | 516 kts | 31° |
| 2026-04-23 20:26 | 41.83231 | -109.74554 | 34911 ft | 516 kts | 32° |
| 2026-04-23 20:26 | 41.88964 | -109.68750 | 34911 ft | 516 kts | 32° |
| 2026-04-23 20:27 | 41.94686 | -109.62942 | 34913 ft | 517 kts | 31° |
| 2026-04-23 20:27 | 42.00424 | -109.57109 | 34905 ft | 518 kts | 32° |
| 2026-04-23 20:28 | 42.06168 | -109.51254 | 34891 ft | 518 kts | 32° |
| 2026-04-23 20:28 | 42.11874 | -109.45424 | 34884 ft | 518 kts | 32° |
| 2026-04-23 20:29 | 42.17610 | -109.39552 | 34887 ft | 518 kts | 32° |
| 2026-04-23 20:29 | 42.23350 | -109.33660 | 34868 ft | 519 kts | 32° |
| 2026-04-23 20:30 | 42.29102 | -109.27742 | 34859 ft | 520 kts | 32° |
| 2026-04-23 20:30 | 42.37718 | -109.18850 | 34842 ft | 520 kts | 32° |
| 2026-04-23 20:31 | 42.43467 | -109.12901 | 34845 ft | 521 kts | 32° |
| 2026-04-23 20:31 | 42.49224 | -109.06932 | 34824 ft | 522 kts | 32° |
| 2026-04-23 20:32 | 42.54987 | -109.00940 | 34810 ft | 522 kts | 33° |
| 2026-04-23 20:32 | 42.60743 | -108.94939 | 34778 ft | 522 kts | 33° |
| 2026-04-23 20:33 | 42.66506 | -108.88918 | 34766 ft | 523 kts | 33° |
| 2026-04-23 20:33 | 42.72281 | -108.82871 | 34731 ft | 525 kts | 33° |
| 2026-04-23 20:34 | 42.78057 | -108.76806 | 34728 ft | 525 kts | 33° |
| 2026-04-23 20:34 | 42.83840 | -108.70718 | 34814 ft | 526 kts | 33° |
| 2026-04-23 20:35 | 42.89631 | -108.64609 | 34763 ft | 526 kts | 33° |
| 2026-04-23 20:35 | 42.95425 | -108.58483 | 34795 ft | 528 kts | 33° |
| 2026-04-23 20:36 | 43.01226 | -108.52333 | 34820 ft | 528 kts | 33° |
| 2026-04-23 20:36 | 43.06977 | -108.46221 | 34813 ft | 528 kts | 33° |
| 2026-04-23 20:37 | 43.12773 | -108.40047 | 34817 ft | 527 kts | 34° |
| 2026-04-23 20:37 | 43.18553 | -108.33873 | 34787 ft | 527 kts | 34° |
| 2026-04-23 20:38 | 43.23405 | -108.28679 | 34765 ft | 527 kts | 34° |
| 2026-04-23 20:38 | 43.29181 | -108.22483 | 34734 ft | 528 kts | 34° |
| 2026-04-23 20:39 | 43.34925 | -108.16305 | 34718 ft | 528 kts | 34° |
| 2026-04-23 20:39 | 43.40738 | -108.10038 | 34724 ft | 528 kts | 34° |
| 2026-04-23 20:40 | 43.46473 | -108.03840 | 34719 ft | 528 kts | 34° |
| 2026-04-23 20:40 | 43.52254 | -107.97500 | 34721 ft | 529 kts | 37° |
| 2026-04-23 20:41 | 43.57619 | -107.90625 | 34742 ft | 531 kts | 41° |
| 2026-04-23 20:41 | 43.62929 | -107.83492 | 34745 ft | 533 kts | 40° |
| 2026-04-23 20:42 | 43.68289 | -107.76419 | 34758 ft | 533 kts | 40° |
| 2026-04-23 20:42 | 43.73686 | -107.69393 | 34754 ft | 534 kts | 40° |
| 2026-04-23 20:43 | 43.79097 | -107.62361 | 34761 ft | 534 kts | 40° |
| 2026-04-23 20:43 | 43.84510 | -107.55304 | 34771 ft | 534 kts | 40° |
| 2026-04-23 20:44 | 43.89925 | -107.48223 | 34766 ft | 535 kts | 40° |
| 2026-04-23 20:44 | 43.95325 | -107.41140 | 34772 ft | 534 kts | 40° |
| 2026-04-23 20:45 | 44.00720 | -107.34044 | 34783 ft | 534 kts | 40° |
| 2026-04-23 20:45 | 44.06103 | -107.26946 | 34787 ft | 534 kts | 40° |
| 2026-04-23 20:46 | 44.11486 | -107.19829 | 34798 ft | 533 kts | 40° |
| 2026-04-23 20:46 | 44.16862 | -107.12702 | 34809 ft | 533 kts | 41° |
| 2026-04-23 20:47 | 44.22230 | -107.05568 | 34806 ft | 533 kts | 41° |
| 2026-04-23 20:47 | 44.27569 | -106.98454 | 34831 ft | 533 kts | 41° |
| 2026-04-23 20:48 | 44.32933 | -106.91285 | 34825 ft | 531 kts | 41° |
| 2026-04-23 20:48 | 44.38270 | -106.84135 | 34841 ft | 532 kts | 41° |
| 2026-04-23 20:49 | 44.43606 | -106.76968 | 34843 ft | 532 kts | 41° |
| 2026-04-23 20:49 | 44.48938 | -106.69788 | 34837 ft | 531 kts | 42° |
| 2026-04-23 20:50 | 44.54245 | -106.62621 | 34833 ft | 529 kts | 42° |
| 2026-04-23 20:50 | 44.59531 | -106.55462 | 34823 ft | 528 kts | 42° |
| 2026-04-23 20:51 | 44.64774 | -106.48343 | 34808 ft | 528 kts | 42° |
| 2026-04-23 20:51 | 44.70093 | -106.41105 | 34801 ft | 528 kts | 43° |
| 2026-04-23 20:52 | 44.75322 | -106.33967 | 34793 ft | 528 kts | 43° |
| 2026-04-23 20:52 | 44.80582 | -106.26768 | 34805 ft | 528 kts | 43° |
| 2026-04-23 20:53 | 44.85845 | -106.19546 | 34787 ft | 529 kts | 43° |
| 2026-04-23 20:53 | 44.91112 | -106.12299 | 34785 ft | 529 kts | 43° |
| 2026-04-23 20:54 | 44.96376 | -106.05037 | 34782 ft | 529 kts | 43° |
| 2026-04-23 20:54 | 45.01631 | -105.97785 | 34784 ft | 529 kts | 42° |
| 2026-04-23 20:55 | 45.07061 | -105.90748 | 34787 ft | 529 kts | 40° |
| 2026-04-23 20:55 | 45.12546 | -105.83804 | 34780 ft | 529 kts | 41° |
| 2026-04-23 20:56 | 45.17997 | -105.76821 | 34792 ft | 528 kts | 41° |
| 2026-04-23 20:56 | 45.23422 | -105.69799 | 34789 ft | 528 kts | 41° |
| 2026-04-23 20:57 | 45.28838 | -105.62753 | 34789 ft | 529 kts | 41° |
| 2026-04-23 20:57 | 45.34142 | -105.55837 | 34794 ft | 525 kts | 42° |
| 2026-04-23 20:58 | 45.39511 | -105.48818 | 34794 ft | 524 kts | 42° |
| 2026-04-23 20:58 | 45.44880 | -105.41780 | 34797 ft | 524 kts | 42° |
| 2026-04-23 20:59 | 45.50234 | -105.34744 | 34800 ft | 524 kts | 42° |
| 2026-04-23 20:59 | 45.55594 | -105.27681 | 34802 ft | 525 kts | 42° |
| 2026-04-23 21:00 | 45.60972 | -105.20577 | 34801 ft | 527 kts | 42° |
| 2026-04-23 21:00 | 45.66341 | -105.13463 | 34804 ft | 527 kts | 42° |
| 2026-04-23 21:01 | 45.71718 | -105.06319 | 34801 ft | 527 kts | 43° |
| 2026-04-23 21:01 | 45.77070 | -104.99191 | 34799 ft | 524 kts | 43° |
| 2026-04-23 21:02 | 45.82393 | -104.92079 | 34796 ft | 523 kts | 43° |
| 2026-04-23 21:02 | 45.87708 | -104.84958 | 34802 ft | 523 kts | 43° |
| 2026-04-23 21:03 | 45.92997 | -104.77854 | 34801 ft | 524 kts | 43° |
| 2026-04-23 21:03 | 45.98302 | -104.70708 | 34796 ft | 522 kts | 43° |
| 2026-04-23 21:04 | 46.03632 | -104.63509 | 34804 ft | 523 kts | 43° |
| 2026-04-23 21:04 | 46.08939 | -104.56322 | 34799 ft | 524 kts | 43° |
| 2026-04-23 21:05 | 46.14220 | -104.49150 | 34809 ft | 524 kts | 43° |
| 2026-04-23 21:05 | 46.19557 | -104.41880 | 34819 ft | 525 kts | 43° |
| 2026-04-23 21:06 | 46.24829 | -104.34680 | 34829 ft | 525 kts | 43° |
| 2026-04-23 21:06 | 46.30134 | -104.27416 | 34835 ft | 526 kts | 43° |
| 2026-04-23 21:07 | 46.35442 | -104.20125 | 34832 ft | 527 kts | 43° |
| 2026-04-23 21:07 | 46.40753 | -104.12809 | 34781 ft | 527 kts | 43° |
| 2026-04-23 21:08 | 46.46059 | -104.05481 | 34777 ft | 527 kts | 43° |
| 2026-04-23 21:08 | 46.51175 | -103.97861 | 34771 ft | 527 kts | 50° |
| 2026-04-23 21:09 | 46.55900 | -103.89713 | 34769 ft | 528 kts | 51° |
| 2026-04-23 21:09 | 46.60570 | -103.81452 | 34755 ft | 529 kts | 51° |
| 2026-04-23 21:10 | 46.65228 | -103.73174 | 34755 ft | 528 kts | 51° |
| 2026-04-23 21:10 | 46.69882 | -103.64900 | 34748 ft | 528 kts | 51° |
| 2026-04-23 21:11 | 46.74534 | -103.56613 | 34738 ft | 529 kts | 51° |
| 2026-04-23 21:11 | 46.79163 | -103.48349 | 34740 ft | 530 kts | 51° |
| 2026-04-23 21:12 | 46.83860 | -103.39937 | 34727 ft | 532 kts | 51° |
| 2026-04-23 21:12 | 46.88525 | -103.31548 | 34711 ft | 531 kts | 51° |
| 2026-04-23 21:13 | 46.93179 | -103.23158 | 34712 ft | 531 kts | 51° |
| 2026-04-23 21:13 | 46.97835 | -103.14741 | 34698 ft | 534 kts | 52° |
| 2026-04-23 21:14 | 47.02503 | -103.06271 | 34698 ft | 534 kts | 52° |
| 2026-04-23 21:14 | 47.07161 | -102.97799 | 34707 ft | 533 kts | 52° |
| 2026-04-23 21:15 | 47.11803 | -102.89334 | 34679 ft | 532 kts | 52° |
| 2026-04-23 21:15 | 47.16441 | -102.80848 | 34676 ft | 533 kts | 52° |
| 2026-04-23 21:16 | 47.21064 | -102.72353 | 34674 ft | 532 kts | 52° |
| 2026-04-23 21:16 | 47.25685 | -102.63839 | 34662 ft | 532 kts | 52° |
| 2026-04-23 21:17 | 47.30268 | -102.55367 | 34661 ft | 531 kts | 52° |
| 2026-04-23 21:17 | 47.34860 | -102.46863 | 34654 ft | 529 kts | 52° |
| 2026-04-23 21:18 | 47.39428 | -102.38370 | 34654 ft | 529 kts | 52° |
| 2026-04-23 21:18 | 47.43999 | -102.29839 | 34653 ft | 531 kts | 52° |
| 2026-04-23 21:19 | 47.48576 | -102.21276 | 34642 ft | 530 kts | 53° |
| 2026-04-23 21:19 | 47.53135 | -102.12720 | 34643 ft | 529 kts | 53° |
| 2026-04-23 21:20 | 47.57688 | -102.04146 | 34637 ft | 529 kts | 53° |
| 2026-04-23 21:20 | 47.62228 | -101.95569 | 34628 ft | 529 kts | 53° |
| 2026-04-23 21:21 | 47.66759 | -101.86988 | 34629 ft | 528 kts | 53° |
| 2026-04-23 21:21 | 47.71286 | -101.78386 | 34618 ft | 529 kts | 53° |
| 2026-04-23 21:22 | 47.75048 | -101.71215 | 34620 ft | 530 kts | 53° |
| 2026-04-23 21:22 | 47.79578 | -101.62555 | 34609 ft | 530 kts | 53° |
| 2026-04-23 21:23 | 47.84103 | -101.53882 | 34588 ft | 532 kts | 53° |
| 2026-04-23 21:23 | 47.88635 | -101.45167 | 34580 ft | 531 kts | 54° |
| 2026-04-23 21:24 | 47.93131 | -101.36489 | 34576 ft | 527 kts | 54° |
| 2026-04-23 21:24 | 47.97596 | -101.27847 | 34578 ft | 526 kts | 54° |
| 2026-04-23 21:25 | 48.02064 | -101.19172 | 34557 ft | 527 kts | 54° |
| 2026-04-23 21:25 | 48.06523 | -101.10482 | 34536 ft | 527 kts | 54° |
| 2026-04-23 21:26 | 48.10978 | -101.01770 | 34546 ft | 527 kts | 55° |
| 2026-04-23 21:26 | 48.15422 | -100.93058 | 34533 ft | 526 kts | 55° |
| 2026-04-23 21:27 | 48.19855 | -100.84336 | 34536 ft | 526 kts | 55° |
| 2026-04-23 21:27 | 48.24276 | -100.75608 | 34505 ft | 526 kts | 55° |
| 2026-04-23 21:28 | 48.28697 | -100.66855 | 34532 ft | 527 kts | 56° |
| 2026-04-23 21:28 | 48.33126 | -100.58058 | 34531 ft | 528 kts | 56° |
| 2026-04-23 21:29 | 48.37546 | -100.49249 | 34525 ft | 528 kts | 56° |
| 2026-04-23 21:29 | 48.41960 | -100.40424 | 34526 ft | 528 kts | 56° |
| 2026-04-23 21:30 | 48.46369 | -100.31579 | 34520 ft | 530 kts | 56° |
| 2026-04-23 21:30 | 48.50800 | -100.22660 | 34531 ft | 531 kts | 56° |
| 2026-04-23 21:31 | 48.55227 | -100.13721 | 34525 ft | 531 kts | 56° |
| 2026-04-23 21:31 | 48.59640 | -100.04783 | 34519 ft | 531 kts | 56° |
| 2026-04-23 21:32 | 48.64037 | -99.95844 | 34516 ft | 532 kts | 57° |
| 2026-04-23 21:32 | 48.68460 | -99.86823 | 34505 ft | 532 kts | 57° |
| 2026-04-23 21:33 | 48.72856 | -99.77830 | 34498 ft | 531 kts | 57° |
| 2026-04-23 21:33 | 48.77244 | -99.68821 | 34490 ft | 531 kts | 57° |
| 2026-04-23 21:34 | 48.81620 | -99.59804 | 34479 ft | 532 kts | 58° |
| 2026-04-23 21:34 | 48.86006 | -99.50735 | 34487 ft | 533 kts | 58° |
| 2026-04-23 21:35 | 48.90393 | -99.41640 | 34466 ft | 533 kts | 58° |
| 2026-04-23 21:35 | 48.94772 | -99.32529 | 34457 ft | 533 kts | 58° |
| 2026-04-23 21:36 | 49.01316 | -99.18856 | 34445 ft | 534 kts | 58° |
| 2026-04-23 21:37 | 49.05683 | -99.09686 | 34440 ft | 536 kts | 58° |
| 2026-04-23 21:37 | 49.10057 | -99.00474 | 34432 ft | 536 kts | 59° |
| 2026-04-23 21:38 | 49.14423 | -98.91249 | 34435 ft | 535 kts | 59° |
| 2026-04-23 21:38 | 49.18778 | -98.82017 | 34407 ft | 536 kts | 59° |
| 2026-04-23 21:39 | 49.23133 | -98.72749 | 34415 ft | 537 kts | 59° |
| 2026-04-23 21:39 | 49.27481 | -98.63467 | 34413 ft | 536 kts | 60° |
| 2026-04-23 21:40 | 49.31823 | -98.54162 | 34391 ft | 536 kts | 60° |
| 2026-04-23 21:40 | 49.36150 | -98.44858 | 34392 ft | 536 kts | 60° |
| 2026-04-23 21:41 | 49.40448 | -98.35584 | 34383 ft | 536 kts | 60° |
| 2026-04-23 21:41 | 49.44751 | -98.26267 | 34382 ft | 536 kts | 60° |
| 2026-04-23 21:42 | 49.49065 | -98.16894 | 34375 ft | 535 kts | 60° |
| 2026-04-23 21:42 | 49.53380 | -98.07487 | 34321 ft | 534 kts | 61° |
| 2026-04-23 21:43 | 49.57632 | -97.98178 | 34361 ft | 536 kts | 61° |
| 2026-04-23 21:43 | 49.61928 | -97.88743 | 34354 ft | 537 kts | 61° |
| 2026-04-23 21:44 | 49.66209 | -97.79310 | 34354 ft | 537 kts | 61° |
| 2026-04-23 21:44 | 49.70490 | -97.69844 | 34348 ft | 537 kts | 61° |
| 2026-04-23 21:45 | 49.74762 | -97.60366 | 34345 ft | 539 kts | 62° |
| 2026-04-23 21:45 | 49.79039 | -97.50835 | 34343 ft | 539 kts | 62° |
| 2026-04-23 21:46 | 49.83311 | -97.41286 | 34359 ft | 539 kts | 62° |
| 2026-04-23 21:46 | 49.87572 | -97.31726 | 34365 ft | 539 kts | 62° |
| 2026-04-23 21:47 | 49.91820 | -97.22160 | 34609 ft | 537 kts | 63° |
| 2026-04-23 21:47 | 49.93867 | -97.17348 | 34820 ft | 533 kts | 64° |
| 2026-04-23 21:47 | 49.95843 | -97.12501 | 35044 ft | 531 kts | 65° |
| 2026-04-23 21:47 | 49.97795 | -97.07631 | 35223 ft | 530 kts | 65° |
| 2026-04-23 21:48 | 49.99727 | -97.02795 | 35440 ft | 529 kts | 64° |
| 2026-04-23 21:48 | 50.01667 | -96.97954 | 35635 ft | 528 kts | 64° |
| 2026-04-23 21:48 | 50.03614 | -96.93115 | 35769 ft | 528 kts | 64° |
| 2026-04-23 21:49 | 50.07527 | -96.83425 | 35975 ft | 528 kts | 64° |
| 2026-04-23 21:49 | 50.09475 | -96.78609 | 36256 ft | 524 kts | 64° |
| 2026-04-23 21:49 | 50.11387 | -96.73869 | 36329 ft | 525 kts | 64° |
| 2026-04-23 21:50 | 50.15284 | -96.64169 | 36326 ft | 529 kts | 64° |
| 2026-04-23 21:50 | 50.19181 | -96.54442 | 36324 ft | 528 kts | 64° |
| 2026-04-23 21:51 | 50.23065 | -96.44711 | 36324 ft | 528 kts | 64° |
| 2026-04-23 21:51 | 50.26939 | -96.34969 | 36328 ft | 526 kts | 64° |
| 2026-04-23 21:52 | 50.30781 | -96.25273 | 36336 ft | 525 kts | 65° |
| 2026-04-23 21:52 | 50.34598 | -96.15597 | 36336 ft | 525 kts | 65° |
| 2026-04-23 21:53 | 50.38449 | -96.05800 | 36372 ft | 525 kts | 65° |
| 2026-04-23 21:53 | 50.42266 | -95.96050 | 36365 ft | 525 kts | 64° |
| 2026-04-23 21:54 | 50.46080 | -95.86274 | 36391 ft | 526 kts | 64° |
| 2026-04-23 21:54 | 50.49888 | -95.76480 | 36392 ft | 525 kts | 65° |
| 2026-04-23 21:55 | 50.53682 | -95.66684 | 36419 ft | 524 kts | 65° |
| 2026-04-23 21:55 | 50.57459 | -95.56896 | 36388 ft | 523 kts | 65° |
| 2026-04-23 21:56 | 50.61225 | -95.47096 | 36435 ft | 523 kts | 65° |
| 2026-04-23 21:56 | 50.64977 | -95.37295 | 36453 ft | 523 kts | 65° |
| 2026-04-23 21:57 | 50.68721 | -95.27480 | 36457 ft | 523 kts | 65° |
| 2026-04-23 21:57 | 50.72464 | -95.17629 | 36472 ft | 523 kts | 65° |
| 2026-04-23 21:58 | 50.76195 | -95.07771 | 36473 ft | 524 kts | 65° |
| 2026-04-23 21:58 | 50.79936 | -94.97846 | 36494 ft | 526 kts | 65° |
| 2026-04-23 21:59 | 50.83665 | -94.87924 | 36513 ft | 525 kts | 65° |
| 2026-04-23 21:59 | 50.87391 | -94.77970 | 36515 ft | 525 kts | 65° |
| 2026-04-23 22:00 | 50.92956 | -94.63021 | 36530 ft | 527 kts | 65° |
| 2026-04-23 22:00 | 50.96682 | -94.52964 | 36530 ft | 529 kts | 65° |
| 2026-04-23 22:01 | 51.00378 | -94.42956 | 36534 ft | 529 kts | 65° |
| 2026-04-23 22:01 | 51.04108 | -94.32814 | 36553 ft | 529 kts | 65° |
| 2026-04-23 22:02 | 51.07810 | -94.22706 | 36556 ft | 528 kts | 65° |
| 2026-04-23 22:02 | 51.11498 | -94.12597 | 36570 ft | 528 kts | 65° |
| 2026-04-23 22:03 | 51.15151 | -94.02542 | 36570 ft | 528 kts | 65° |
| 2026-04-23 22:03 | 51.18847 | -93.92329 | 36572 ft | 528 kts | 65° |
| 2026-04-23 22:04 | 51.22483 | -93.82243 | 36573 ft | 528 kts | 65° |
| 2026-04-23 22:04 | 51.26134 | -93.72073 | 36600 ft | 530 kts | 65° |
| 2026-04-23 22:05 | 51.29789 | -93.61849 | 36619 ft | 527 kts | 65° |
| 2026-04-23 22:05 | 51.33403 | -93.51714 | 36619 ft | 523 kts | 65° |
| 2026-04-23 22:06 | 51.36987 | -93.41609 | 36636 ft | 522 kts | 65° |
| 2026-04-23 22:06 | 51.39981 | -93.33133 | 36604 ft | 522 kts | 65° |
| 2026-04-23 22:07 | 51.43553 | -93.22985 | 36660 ft | 523 kts | 65° |
| 2026-04-23 22:07 | 51.47093 | -93.12893 | 36657 ft | 523 kts | 65° |
| 2026-04-23 22:08 | 51.50655 | -93.02699 | 36673 ft | 523 kts | 65° |
| 2026-04-23 22:08 | 51.54205 | -92.92495 | 36679 ft | 523 kts | 65° |
| 2026-04-23 22:09 | 51.57737 | -92.82300 | 36685 ft | 522 kts | 64° |
| 2026-04-23 22:09 | 51.61264 | -92.72081 | 36692 ft | 523 kts | 64° |
| 2026-04-23 22:10 | 51.64789 | -92.61826 | 36700 ft | 524 kts | 64° |
| 2026-04-23 22:10 | 51.68306 | -92.51549 | 36700 ft | 524 kts | 64° |
| 2026-04-23 22:11 | 51.71811 | -92.41269 | 36711 ft | 523 kts | 64° |
| 2026-04-23 22:11 | 51.75308 | -92.30971 | 36733 ft | 523 kts | 63° |
| 2026-04-23 22:12 | 51.78793 | -92.20663 | 36735 ft | 523 kts | 63° |
| 2026-04-23 22:12 | 51.82265 | -92.10350 | 36754 ft | 522 kts | 63° |
| 2026-04-23 22:13 | 51.85724 | -92.00036 | 36742 ft | 522 kts | 64° |
| 2026-04-23 22:13 | 51.89174 | -91.89701 | 36766 ft | 522 kts | 63° |
| 2026-04-23 22:14 | 51.92619 | -91.79341 | 36768 ft | 522 kts | 63° |
| 2026-04-23 22:14 | 51.96053 | -91.68971 | 36788 ft | 523 kts | 63° |
| 2026-04-23 22:15 | 51.99485 | -91.58565 | 36790 ft | 523 kts | 63° |
| 2026-04-23 22:15 | 52.02903 | -91.48155 | 36808 ft | 523 kts | 63° |
| 2026-04-23 22:16 | 52.06316 | -91.37720 | 36807 ft | 524 kts | 62° |
| 2026-04-23 22:16 | 52.09721 | -91.27263 | 36826 ft | 524 kts | 63° |
| 2026-04-23 22:17 | 52.13120 | -91.16779 | 36843 ft | 524 kts | 63° |
| 2026-04-23 22:17 | 52.16513 | -91.06270 | 36843 ft | 524 kts | 63° |
| 2026-04-23 22:18 | 52.19897 | -90.95742 | 36856 ft | 524 kts | 62° |
| 2026-04-23 22:18 | 52.23262 | -90.85230 | 36864 ft | 523 kts | 62° |
| 2026-04-23 22:19 | 52.26621 | -90.74691 | 36886 ft | 523 kts | 63° |
| 2026-04-23 22:19 | 52.29972 | -90.64132 | 36896 ft | 524 kts | 63° |
| 2026-04-23 22:20 | 52.33325 | -90.53521 | 36922 ft | 526 kts | 63° |
| 2026-04-23 22:20 | 52.36649 | -90.42956 | 36921 ft | 525 kts | 62° |
| 2026-04-23 22:21 | 52.39971 | -90.32352 | 36949 ft | 523 kts | 63° |
| 2026-04-23 22:21 | 52.43284 | -90.21728 | 36949 ft | 523 kts | 63° |
| 2026-04-23 22:22 | 52.46603 | -90.11038 | 36971 ft | 523 kts | 63° |
| 2026-04-23 22:22 | 52.49896 | -90.00387 | 36979 ft | 523 kts | 63° |
| 2026-04-23 22:23 | 52.53154 | -89.89819 | 37000 ft | 522 kts | 62° |
| 2026-04-23 22:23 | 52.56418 | -89.79181 | 36993 ft | 522 kts | 62° |
| 2026-04-23 22:24 | 52.59671 | -89.68532 | 37001 ft | 522 kts | 62° |
| 2026-04-23 22:24 | 52.62922 | -89.57843 | 37018 ft | 522 kts | 62° |
| 2026-04-23 22:25 | 52.66179 | -89.47090 | 37015 ft | 522 kts | 62° |
| 2026-04-23 22:25 | 52.69383 | -89.36460 | 37039 ft | 522 kts | 62° |
| 2026-04-23 22:26 | 52.72604 | -89.25730 | 37040 ft | 522 kts | 62° |
| 2026-04-23 22:26 | 52.75812 | -89.14992 | 37053 ft | 522 kts | 62° |
| 2026-04-23 22:27 | 52.79017 | -89.04217 | 37062 ft | 523 kts | 62° |
| 2026-04-23 22:27 | 52.82214 | -88.93419 | 37072 ft | 522 kts | 62° |
| 2026-04-23 22:28 | 52.85390 | -88.82644 | 37072 ft | 521 kts | 62° |
| 2026-04-23 22:28 | 52.88553 | -88.71866 | 37089 ft | 520 kts | 62° |
| 2026-04-23 22:29 | 52.91704 | -88.61079 | 37089 ft | 520 kts | 62° |
| 2026-04-23 22:29 | 52.94848 | -88.50266 | 37100 ft | 520 kts | 62° |
| 2026-04-23 22:30 | 52.97970 | -88.39480 | 37107 ft | 520 kts | 62° |
| 2026-04-23 22:30 | 53.01102 | -88.28611 | 37120 ft | 521 kts | 63° |
| 2026-04-23 22:31 | 53.04224 | -88.17725 | 37113 ft | 522 kts | 63° |
| 2026-04-23 22:31 | 53.07338 | -88.06818 | 37130 ft | 522 kts | 63° |
| 2026-04-23 22:32 | 53.10444 | -87.95887 | 37133 ft | 522 kts | 63° |
| 2026-04-23 22:32 | 53.13532 | -87.84962 | 37143 ft | 520 kts | 63° |
| 2026-04-23 22:33 | 53.16599 | -87.74067 | 37144 ft | 519 kts | 63° |
| 2026-04-23 22:33 | 53.19654 | -87.63166 | 37144 ft | 519 kts | 63° |
| 2026-04-23 22:34 | 53.22702 | -87.52236 | 37172 ft | 519 kts | 63° |
| 2026-04-23 22:34 | 53.25731 | -87.41320 | 37170 ft | 517 kts | 62° |
| 2026-04-23 22:35 | 53.28729 | -87.30460 | 37179 ft | 512 kts | 63° |
| 2026-04-23 22:35 | 53.31704 | -87.19645 | 37162 ft | 512 kts | 63° |
| 2026-04-23 22:36 | 53.34666 | -87.08824 | 37190 ft | 512 kts | 63° |
| 2026-04-23 22:36 | 53.37624 | -86.97966 | 37192 ft | 512 kts | 63° |
| 2026-04-23 22:37 | 53.40568 | -86.87110 | 37189 ft | 512 kts | 62° |
| 2026-04-23 22:37 | 53.43497 | -86.76252 | 37195 ft | 510 kts | 62° |
| 2026-04-23 22:38 | 53.46410 | -86.65403 | 37203 ft | 510 kts | 62° |
| 2026-04-23 22:38 | 53.49315 | -86.54536 | 37203 ft | 510 kts | 62° |
| 2026-04-23 22:39 | 53.52213 | -86.43642 | 37215 ft | 510 kts | 62° |
| 2026-04-23 22:39 | 53.55095 | -86.32755 | 37223 ft | 510 kts | 62° |
| 2026-04-23 22:40 | 53.57944 | -86.21938 | 37230 ft | 509 kts | 62° |
| 2026-04-23 22:41 | 53.62247 | -86.05508 | 37234 ft | 509 kts | 62° |
| 2026-04-23 22:41 | 53.65072 | -85.94658 | 37234 ft | 509 kts | 62° |
| 2026-04-23 22:42 | 53.67925 | -85.83647 | 37245 ft | 509 kts | 63° |
| 2026-04-23 22:42 | 53.70733 | -85.72751 | 37247 ft | 510 kts | 63° |
| 2026-04-23 22:43 | 53.73551 | -85.61765 | 37255 ft | 510 kts | 63° |
| 2026-04-23 22:43 | 53.76381 | -85.50681 | 37257 ft | 510 kts | 63° |
| 2026-04-23 22:44 | 53.79159 | -85.39745 | 37260 ft | 510 kts | 63° |
| 2026-04-23 22:44 | 53.81949 | -85.28706 | 37268 ft | 510 kts | 63° |
| 2026-04-23 22:45 | 53.84726 | -85.17660 | 37267 ft | 509 kts | 63° |
| 2026-04-23 22:45 | 53.87487 | -85.06630 | 37272 ft | 509 kts | 63° |
| 2026-04-23 22:46 | 53.90241 | -84.95571 | 37289 ft | 509 kts | 63° |
| 2026-04-23 22:46 | 53.92983 | -84.84507 | 37282 ft | 509 kts | 63° |
| 2026-04-23 22:47 | 53.95717 | -84.73417 | 37302 ft | 509 kts | 63° |
| 2026-04-23 22:47 | 53.98423 | -84.62378 | 37293 ft | 507 kts | 63° |
| 2026-04-23 22:48 | 54.01124 | -84.51309 | 37292 ft | 506 kts | 63° |
| 2026-04-23 22:48 | 54.03812 | -84.40244 | 37297 ft | 506 kts | 63° |
| 2026-04-23 22:49 | 54.06489 | -84.29167 | 37304 ft | 506 kts | 63° |
| 2026-04-23 22:49 | 54.08704 | -84.19954 | 37302 ft | 506 kts | 63° |
| 2026-04-23 22:50 | 54.11364 | -84.08841 | 37311 ft | 506 kts | 63° |
| 2026-04-23 22:50 | 54.14005 | -83.97746 | 37311 ft | 505 kts | 63° |
| 2026-04-23 22:51 | 54.16638 | -83.86629 | 37312 ft | 505 kts | 63° |
| 2026-04-23 22:51 | 54.19259 | -83.75513 | 37325 ft | 505 kts | 63° |
| 2026-04-23 22:52 | 54.21871 | -83.64371 | 37322 ft | 505 kts | 63° |
| 2026-04-23 22:52 | 54.24452 | -83.53301 | 37325 ft | 504 kts | 63° |
| 2026-04-23 22:53 | 54.27052 | -83.42096 | 37333 ft | 504 kts | 63° |
| 2026-04-23 22:53 | 54.29628 | -83.30936 | 37339 ft | 504 kts | 63° |
| 2026-04-23 22:54 | 54.32191 | -83.19775 | 37337 ft | 504 kts | 63° |
| 2026-04-23 22:54 | 54.34746 | -83.08589 | 37338 ft | 505 kts | 63° |
| 2026-04-23 22:55 | 54.37292 | -82.97379 | 37344 ft | 504 kts | 63° |
| 2026-04-23 22:55 | 54.39807 | -82.86248 | 37345 ft | 504 kts | 63° |
| 2026-04-23 22:56 | 54.42330 | -82.75023 | 37346 ft | 504 kts | 63° |
| 2026-04-23 22:56 | 54.44843 | -82.63783 | 37355 ft | 504 kts | 63° |
| 2026-04-23 22:57 | 54.47345 | -82.52534 | 37355 ft | 504 kts | 63° |
| 2026-04-23 22:57 | 54.49836 | -82.41273 | 37358 ft | 503 kts | 63° |
| 2026-04-23 22:58 | 54.52311 | -82.30020 | 37353 ft | 503 kts | 63° |
| 2026-04-23 22:58 | 54.54776 | -82.18748 | 37358 ft | 503 kts | 63° |
| 2026-04-23 22:59 | 54.57234 | -82.07454 | 37355 ft | 503 kts | 63° |
| 2026-04-23 22:59 | 54.59675 | -81.96172 | 37362 ft | 503 kts | 63° |
| 2026-04-23 23:00 | 54.62107 | -81.84869 | 37364 ft | 502 kts | 63° |
| 2026-04-23 23:00 | 54.64524 | -81.73572 | 37360 ft | 500 kts | 63° |
| 2026-04-23 23:01 | 54.66923 | -81.62300 | 37360 ft | 500 kts | 63° |
| 2026-04-23 23:01 | 54.69315 | -81.51004 | 37361 ft | 500 kts | 63° |
| 2026-04-23 23:02 | 54.71698 | -81.39686 | 37362 ft | 501 kts | 63° |
| 2026-04-23 23:02 | 54.74067 | -81.28369 | 37370 ft | 500 kts | 64° |
| 2026-04-23 23:03 | 54.75429 | -81.21821 | 37368 ft | 496 kts | 64° |
| 2026-04-23 23:03 | 54.77755 | -81.10601 | 37359 ft | 495 kts | 64° |
| 2026-04-23 23:04 | 54.80078 | -80.99349 | 37356 ft | 495 kts | 64° |
| 2026-04-23 23:04 | 54.82387 | -80.88099 | 37355 ft | 496 kts | 64° |
| 2026-04-23 23:05 | 54.84687 | -80.76823 | 37359 ft | 496 kts | 64° |
| 2026-04-23 23:05 | 54.86970 | -80.65559 | 37357 ft | 492 kts | 65° |
| 2026-04-23 23:06 | 54.89188 | -80.54542 | 37355 ft | 489 kts | 65° |
| 2026-04-23 23:06 | 54.91424 | -80.43399 | 37352 ft | 489 kts | 65° |
| 2026-04-23 23:07 | 54.93653 | -80.32228 | 37348 ft | 489 kts | 65° |
| 2026-04-23 23:07 | 54.95870 | -80.21044 | 37349 ft | 489 kts | 65° |
| 2026-04-23 23:08 | 54.98073 | -80.09870 | 37353 ft | 490 kts | 65° |
| 2026-04-23 23:08 | 55.00284 | -79.98610 | 37349 ft | 491 kts | 66° |
| 2026-04-23 23:09 | 55.02853 | -79.87673 | 37349 ft | 486 kts | 60° |
| 2026-04-23 23:09 | 55.05699 | -79.76966 | 37355 ft | 486 kts | 60° |
| 2026-04-23 23:10 | 55.08485 | -79.66195 | 37357 ft | 487 kts | 60° |
| 2026-04-23 23:10 | 55.11199 | -79.55348 | 37357 ft | 489 kts | 61° |
| 2026-04-23 23:11 | 55.13889 | -79.44438 | 37361 ft | 489 kts | 62° |
| 2026-04-23 23:11 | 55.16570 | -79.33507 | 37360 ft | 489 kts | 62° |
| 2026-04-23 23:12 | 55.19246 | -79.22560 | 37357 ft | 489 kts | 62° |
| 2026-04-23 23:12 | 55.21910 | -79.11617 | 37357 ft | 489 kts | 62° |
| 2026-04-23 23:13 | 55.24568 | -79.00640 | 37357 ft | 489 kts | 62° |
| 2026-04-23 23:13 | 55.27199 | -78.89727 | 37370 ft | 489 kts | 63° |
| 2026-04-23 23:14 | 55.29844 | -78.78702 | 37356 ft | 485 kts | 64° |
| 2026-04-23 23:14 | 55.32433 | -78.67844 | 37357 ft | 485 kts | 64° |
| 2026-04-23 23:15 | 55.35047 | -78.56831 | 37356 ft | 485 kts | 64° |
| 2026-04-23 23:15 | 55.37615 | -78.45954 | 37357 ft | 485 kts | 64° |
| 2026-04-23 23:16 | 55.40193 | -78.34983 | 37350 ft | 485 kts | 64° |
| 2026-04-23 23:16 | 55.42760 | -78.24002 | 37349 ft | 485 kts | 64° |
| 2026-04-23 23:17 | 55.45320 | -78.12995 | 37344 ft | 486 kts | 64° |
| 2026-04-23 23:17 | 55.47871 | -78.01967 | 37344 ft | 486 kts | 64° |
| 2026-04-23 23:18 | 55.50409 | -77.90941 | 37349 ft | 486 kts | 64° |
| 2026-04-23 23:18 | 55.52938 | -77.79893 | 37347 ft | 486 kts | 65° |
| 2026-04-23 23:19 | 55.55461 | -77.68818 | 37343 ft | 486 kts | 65° |
| 2026-04-23 23:19 | 55.57970 | -77.57746 | 37343 ft | 487 kts | 65° |
| 2026-04-23 23:20 | 55.60479 | -77.46614 | 37340 ft | 488 kts | 66° |
| 2026-04-23 23:20 | 55.62983 | -77.35445 | 37343 ft | 488 kts | 66° |
| 2026-04-23 23:21 | 55.65473 | -77.24278 | 37346 ft | 488 kts | 66° |
| 2026-04-23 23:21 | 55.67959 | -77.13074 | 37350 ft | 489 kts | 66° |
| 2026-04-23 23:22 | 55.70436 | -77.01841 | 37352 ft | 489 kts | 66° |
| 2026-04-23 23:22 | 55.72902 | -76.90609 | 37350 ft | 489 kts | 68° |
| 2026-04-23 23:23 | 55.75362 | -76.79334 | 37344 ft | 490 kts | 68° |
| 2026-04-23 23:23 | 55.77812 | -76.68045 | 37342 ft | 490 kts | 68° |
| 2026-04-23 23:24 | 55.80247 | -76.56764 | 37339 ft | 490 kts | 68° |
| 2026-04-23 23:24 | 55.82678 | -76.45441 | 37338 ft | 490 kts | 68° |
| 2026-04-23 23:25 | 55.85099 | -76.34109 | 37340 ft | 491 kts | 69° |
| 2026-04-23 23:25 | 55.87509 | -76.22748 | 37335 ft | 491 kts | 70° |
| 2026-04-23 23:26 | 55.89913 | -76.11359 | 37339 ft | 491 kts | 70° |
| 2026-04-23 23:26 | 55.92308 | -75.99952 | 37332 ft | 491 kts | 70° |
| 2026-04-23 23:27 | 55.94690 | -75.88540 | 37337 ft | 491 kts | 70° |
| 2026-04-23 23:27 | 55.97065 | -75.77102 | 37337 ft | 491 kts | 70° |
| 2026-04-23 23:28 | 55.99426 | -75.65660 | 37341 ft | 491 kts | 71° |
| 2026-04-23 23:28 | 56.01769 | -75.54241 | 37344 ft | 490 kts | 71° |
| 2026-04-23 23:29 | 56.04108 | -75.42776 | 37343 ft | 490 kts | 71° |
| 2026-04-23 23:29 | 56.06434 | -75.31310 | 37346 ft | 490 kts | 71° |
| 2026-04-23 23:30 | 56.08732 | -75.19916 | 37353 ft | 490 kts | 72° |
| 2026-04-23 23:30 | 56.11057 | -75.08322 | 37349 ft | 490 kts | 72° |
| 2026-04-23 23:31 | 56.13348 | -74.96834 | 37343 ft | 489 kts | 72° |
| 2026-04-23 23:31 | 56.15610 | -74.85425 | 37351 ft | 488 kts | 72° |
| 2026-04-23 23:32 | 56.17870 | -74.73954 | 37355 ft | 488 kts | 73° |
| 2026-04-23 23:32 | 56.20123 | -74.62448 | 37357 ft | 489 kts | 73° |
| 2026-04-23 23:33 | 56.22369 | -74.50913 | 37363 ft | 489 kts | 73° |
| 2026-04-23 23:33 | 56.24242 | -74.41240 | 37360 ft | 489 kts | 73° |
| 2026-04-23 23:34 | 56.26453 | -74.29762 | 37356 ft | 488 kts | 73° |
| 2026-04-23 23:34 | 56.28662 | -74.18228 | 37368 ft | 487 kts | 73° |
| 2026-04-23 23:35 | 56.30859 | -74.06680 | 37366 ft | 487 kts | 74° |
| 2026-04-23 23:35 | 56.33044 | -73.95127 | 37366 ft | 487 kts | 74° |
| 2026-04-23 23:36 | 56.35236 | -73.83468 | 37370 ft | 489 kts | 74° |
| 2026-04-23 23:36 | 56.37406 | -73.71852 | 37371 ft | 489 kts | 74° |
| 2026-04-23 23:37 | 56.39569 | -73.60207 | 37369 ft | 489 kts | 75° |
| 2026-04-23 23:37 | 56.41714 | -73.48581 | 37379 ft | 489 kts | 75° |
| 2026-04-23 23:38 | 56.43855 | -73.36914 | 37375 ft | 489 kts | 75° |
| 2026-04-23 23:38 | 56.45981 | -73.25248 | 37377 ft | 488 kts | 75° |
| 2026-04-23 23:39 | 56.48096 | -73.13571 | 37381 ft | 488 kts | 75° |
| 2026-04-23 23:39 | 56.50198 | -73.01893 | 37378 ft | 489 kts | 75° |
| 2026-04-23 23:40 | 56.52277 | -72.90273 | 37382 ft | 487 kts | 75° |
| 2026-04-23 23:40 | 56.54346 | -72.78624 | 37388 ft | 486 kts | 75° |
| 2026-04-23 23:41 | 56.56419 | -72.66884 | 37386 ft | 486 kts | 75° |
| 2026-04-23 23:41 | 56.58453 | -72.55288 | 37382 ft | 486 kts | 75° |
| 2026-04-23 23:42 | 56.60487 | -72.43616 | 37390 ft | 486 kts | 76° |
| 2026-04-23 23:42 | 56.62513 | -72.31920 | 37389 ft | 485 kts | 76° |
| 2026-04-23 23:43 | 56.64526 | -72.20226 | 37387 ft | 483 kts | 75° |
| 2026-04-23 23:43 | 56.66518 | -72.08583 | 37392 ft | 483 kts | 76° |
| 2026-04-23 23:44 | 56.68503 | -71.96901 | 37389 ft | 483 kts | 76° |
| 2026-04-23 23:44 | 56.70472 | -71.85228 | 37390 ft | 483 kts | 76° |
| 2026-04-23 23:45 | 56.72436 | -71.73512 | 37395 ft | 483 kts | 76° |
| 2026-04-23 23:45 | 56.74386 | -71.61803 | 37395 ft | 483 kts | 76° |
| 2026-04-23 23:46 | 56.76324 | -71.50091 | 37397 ft | 483 kts | 76° |
| 2026-04-23 23:46 | 56.78251 | -71.38363 | 37395 ft | 483 kts | 76° |
| 2026-04-23 23:47 | 56.80167 | -71.26623 | 37388 ft | 483 kts | 76° |
| 2026-04-23 23:47 | 56.82076 | -71.14843 | 37384 ft | 484 kts | 77° |
| 2026-04-23 23:48 | 56.83972 | -71.03066 | 37389 ft | 484 kts | 77° |
| 2026-04-23 23:48 | 56.85855 | -70.91289 | 37381 ft | 483 kts | 76° |
| 2026-04-23 23:49 | 56.88652 | -70.73647 | 37379 ft | 480 kts | 77° |
| 2026-04-23 23:49 | 56.90498 | -70.61900 | 37378 ft | 480 kts | 77° |
| 2026-04-23 23:50 | 56.92331 | -70.50151 | 37389 ft | 480 kts | 77° |
| 2026-04-23 23:50 | 56.94152 | -70.38401 | 37386 ft | 480 kts | 77° |
| 2026-04-23 23:51 | 56.95966 | -70.26608 | 37376 ft | 481 kts | 77° |
| 2026-04-23 23:51 | 56.97770 | -70.14808 | 37383 ft | 479 kts | 77° |
| 2026-04-23 23:52 | 56.99552 | -70.03065 | 37383 ft | 477 kts | 77° |
| 2026-04-23 23:52 | 57.01411 | -69.91392 | 37381 ft | 478 kts | 75° |
| 2026-04-23 23:53 | 57.03529 | -69.79822 | 37378 ft | 478 kts | 74° |
| 2026-04-23 23:53 | 57.05650 | -69.68249 | 37377 ft | 478 kts | 75° |
| 2026-04-23 23:54 | 57.07719 | -69.56635 | 37384 ft | 478 kts | 75° |
| 2026-04-23 23:54 | 57.09750 | -69.45024 | 37373 ft | 477 kts | 74° |
| 2026-04-23 23:55 | 57.11758 | -69.33457 | 37378 ft | 473 kts | 74° |
| 2026-04-23 23:55 | 57.13749 | -69.21914 | 37376 ft | 473 kts | 75° |
| 2026-04-23 23:56 | 57.15728 | -69.10380 | 37364 ft | 473 kts | 75° |
| 2026-04-23 23:56 | 57.17698 | -68.98824 | 37369 ft | 472 kts | 75° |
| 2026-04-23 23:57 | 57.19657 | -68.87257 | 37358 ft | 472 kts | 75° |
| 2026-04-23 23:57 | 57.21606 | -68.75677 | 37358 ft | 472 kts | 75° |
| 2026-04-23 23:58 | 57.23540 | -68.64114 | 37363 ft | 471 kts | 75° |
| 2026-04-23 23:58 | 57.25457 | -68.52572 | 37358 ft | 470 kts | 75° |
| 2026-04-23 23:59 | 57.27364 | -68.41012 | 37350 ft | 470 kts | 75° |
| 2026-04-23 23:59 | 57.29250 | -68.29512 | 37346 ft | 470 kts | 75° |
| 2026-04-24 00:00 | 57.31146 | -68.17867 | 37353 ft | 470 kts | 75° |
| 2026-04-24 00:00 | 57.33010 | -68.06347 | 37355 ft | 470 kts | 75° |
| 2026-04-24 00:01 | 57.34884 | -67.94684 | 37348 ft | 469 kts | 75° |
| 2026-04-24 00:01 | 57.36717 | -67.83196 | 37342 ft | 468 kts | 75° |
| 2026-04-24 00:02 | 57.38552 | -67.71622 | 37348 ft | 468 kts | 76° |
| 2026-04-24 00:02 | 57.40374 | -67.60044 | 37338 ft | 468 kts | 75° |
| 2026-04-24 00:03 | 57.42189 | -67.48442 | 37338 ft | 468 kts | 76° |
| 2026-04-24 00:03 | 57.43989 | -67.36847 | 37322 ft | 468 kts | 76° |
| 2026-04-24 00:04 | 57.45781 | -67.25229 | 37333 ft | 468 kts | 76° |
| 2026-04-24 00:04 | 57.47559 | -67.13628 | 37322 ft | 465 kts | 76° |
| 2026-04-24 00:05 | 57.49314 | -67.02086 | 37312 ft | 464 kts | 76° |
| 2026-04-24 00:05 | 57.51062 | -66.90508 | 37309 ft | 465 kts | 76° |
| 2026-04-24 00:06 | 57.52799 | -66.78926 | 37296 ft | 465 kts | 76° |
| 2026-04-24 00:06 | 57.54523 | -66.67349 | 37296 ft | 465 kts | 76° |
| 2026-04-24 00:07 | 57.56239 | -66.55744 | 37297 ft | 465 kts | 76° |
| 2026-04-24 00:07 | 57.57944 | -66.44130 | 37290 ft | 464 kts | 76° |
| 2026-04-24 00:08 | 57.59634 | -66.32536 | 37285 ft | 463 kts | 76° |
| 2026-04-24 00:08 | 57.61311 | -66.20948 | 37287 ft | 463 kts | 76° |
| 2026-04-24 00:09 | 57.62980 | -66.09334 | 37277 ft | 464 kts | 76° |
| 2026-04-24 00:09 | 57.64639 | -65.97693 | 37286 ft | 465 kts | 77° |
| 2026-04-24 00:10 | 57.66293 | -65.86013 | 37274 ft | 465 kts | 77° |
| 2026-04-24 00:10 | 57.67936 | -65.74325 | 37292 ft | 465 kts | 77° |
| 2026-04-24 00:11 | 57.69566 | -65.62637 | 37283 ft | 463 kts | 77° |
| 2026-04-24 00:11 | 57.71178 | -65.50987 | 37269 ft | 463 kts | 77° |
| 2026-04-24 00:12 | 57.72779 | -65.39330 | 37270 ft | 463 kts | 77° |
| 2026-04-24 00:12 | 57.74371 | -65.27657 | 37249 ft | 463 kts | 77° |
| 2026-04-24 00:13 | 57.75953 | -65.15965 | 37252 ft | 464 kts | 77° |
| 2026-04-24 00:13 | 57.77529 | -65.04226 | 37266 ft | 465 kts | 77° |
| 2026-04-24 00:14 | 57.79094 | -64.92475 | 37256 ft | 464 kts | 77° |
| 2026-04-24 00:14 | 57.80644 | -64.80757 | 37254 ft | 462 kts | 77° |
| 2026-04-24 00:15 | 57.81920 | -64.71027 | 37249 ft | 462 kts | 78° |
| 2026-04-24 00:15 | 57.83445 | -64.59321 | 37251 ft | 462 kts | 78° |
| 2026-04-24 00:16 | 57.84958 | -64.47616 | 37259 ft | 462 kts | 78° |
| 2026-04-24 00:16 | 57.86460 | -64.35896 | 37262 ft | 462 kts | 78° |
| 2026-04-24 00:17 | 57.87956 | -64.24142 | 37253 ft | 463 kts | 78° |
| 2026-04-24 00:17 | 57.89440 | -64.12375 | 37258 ft | 463 kts | 78° |
| 2026-04-24 00:18 | 57.90916 | -64.00586 | 37262 ft | 463 kts | 78° |
| 2026-04-24 00:18 | 57.92378 | -63.88802 | 37264 ft | 463 kts | 78° |
| 2026-04-24 00:19 | 57.93829 | -63.77014 | 37270 ft | 463 kts | 78° |
| 2026-04-24 00:19 | 57.95270 | -63.65213 | 37281 ft | 463 kts | 78° |
| 2026-04-24 00:20 | 57.96701 | -63.53392 | 37278 ft | 463 kts | 78° |
| 2026-04-24 00:20 | 57.98119 | -63.41580 | 37286 ft | 462 kts | 79° |
| 2026-04-24 00:21 | 57.99528 | -63.29854 | 37278 ft | 455 kts | 77° |
| 2026-04-24 00:21 | 58.01566 | -63.18610 | 37291 ft | 453 kts | 71° |
| 2026-04-24 00:22 | 58.03849 | -63.07533 | 37298 ft | 453 kts | 70° |
| 2026-04-24 00:22 | 58.06138 | -62.96577 | 37298 ft | 453 kts | 71° |
| 2026-04-24 00:23 | 58.08416 | -62.85588 | 37274 ft | 453 kts | 71° |
| 2026-04-24 00:23 | 58.10694 | -62.74493 | 37279 ft | 453 kts | 71° |
| 2026-04-24 00:24 | 58.12958 | -62.63392 | 37299 ft | 452 kts | 71° |
| 2026-04-24 00:24 | 58.15210 | -62.52285 | 37301 ft | 452 kts | 71° |
| 2026-04-24 00:25 | 58.17452 | -62.41173 | 37295 ft | 450 kts | 71° |
| 2026-04-24 00:25 | 58.19672 | -62.30105 | 37307 ft | 449 kts | 71° |
| 2026-04-24 00:26 | 58.21877 | -62.19044 | 37304 ft | 449 kts | 71° |
| 2026-04-24 00:26 | 58.24084 | -62.07918 | 37303 ft | 449 kts | 71° |
| 2026-04-24 00:27 | 58.26273 | -61.96814 | 37301 ft | 450 kts | 71° |
| 2026-04-24 00:27 | 58.28459 | -61.85671 | 37304 ft | 450 kts | 71° |
| 2026-04-24 00:28 | 58.30635 | -61.74510 | 37297 ft | 450 kts | 71° |
| 2026-04-24 00:28 | 58.32798 | -61.63355 | 37298 ft | 450 kts | 71° |
| 2026-04-24 00:29 | 58.34953 | -61.52176 | 37298 ft | 448 kts | 71° |
| 2026-04-24 00:29 | 58.37090 | -61.41032 | 37295 ft | 448 kts | 71° |
| 2026-04-24 00:30 | 58.39214 | -61.29885 | 37297 ft | 447 kts | 71° |
| 2026-04-24 00:30 | 58.41329 | -61.18727 | 37288 ft | 447 kts | 71° |
| 2026-04-24 00:31 | 58.43434 | -61.07553 | 37281 ft | 447 kts | 71° |
| 2026-04-24 00:31 | 58.45528 | -60.96373 | 37281 ft | 447 kts | 72° |
| 2026-04-24 00:32 | 58.47613 | -60.85175 | 37273 ft | 447 kts | 72° |
| 2026-04-24 00:32 | 58.49687 | -60.73970 | 37277 ft | 447 kts | 72° |
| 2026-04-24 00:33 | 58.51750 | -60.62759 | 37279 ft | 446 kts | 72° |
| 2026-04-24 00:33 | 58.53796 | -60.51580 | 37275 ft | 444 kts | 72° |
| 2026-04-24 00:34 | 58.55828 | -60.40404 | 37270 ft | 444 kts | 72° |
| 2026-04-24 00:34 | 58.57849 | -60.29223 | 37273 ft | 444 kts | 72° |
| 2026-04-24 00:35 | 58.59857 | -60.18048 | 37274 ft | 444 kts | 72° |
| 2026-04-24 00:35 | 58.61858 | -60.06846 | 37270 ft | 444 kts | 72° |
| 2026-04-24 00:36 | 58.63839 | -59.95693 | 37272 ft | 444 kts | 72° |
| 2026-04-24 00:36 | 58.65832 | -59.84398 | 37255 ft | 444 kts | 72° |
| 2026-04-24 00:37 | 58.67792 | -59.73223 | 37290 ft | 444 kts | 72° |
| 2026-04-24 00:37 | 58.69748 | -59.62007 | 37274 ft | 442 kts | 72° |
| 2026-04-24 00:38 | 58.71705 | -59.50716 | 37274 ft | 442 kts | 72° |
| 2026-04-24 00:38 | 58.73625 | -59.39568 | 37272 ft | 442 kts | 72° |
| 2026-04-24 00:39 | 58.75546 | -59.28346 | 37271 ft | 441 kts | 72° |
| 2026-04-24 00:39 | 58.77458 | -59.17101 | 37267 ft | 441 kts | 72° |
| 2026-04-24 00:40 | 58.79358 | -59.05864 | 37269 ft | 441 kts | 73° |
| 2026-04-24 00:40 | 58.81251 | -58.94600 | 37270 ft | 441 kts | 73° |
| 2026-04-24 00:41 | 58.83134 | -58.83316 | 37271 ft | 441 kts | 73° |
| 2026-04-24 00:41 | 58.85005 | -58.72042 | 37279 ft | 440 kts | 72° |
| 2026-04-24 00:42 | 58.86856 | -58.60812 | 37275 ft | 438 kts | 73° |
| 2026-04-24 00:42 | 58.88694 | -58.49592 | 37283 ft | 438 kts | 73° |
| 2026-04-24 00:43 | 58.90521 | -58.38369 | 37279 ft | 438 kts | 73° |
| 2026-04-24 00:43 | 58.92338 | -58.27133 | 37279 ft | 438 kts | 73° |
| 2026-04-24 00:44 | 58.94147 | -58.15878 | 37285 ft | 437 kts | 73° |
| 2026-04-24 00:44 | 58.95945 | -58.04617 | 37284 ft | 438 kts | 73° |
| 2026-04-24 00:45 | 58.97744 | -57.93351 | 37284 ft | 438 kts | 73° |
| 2026-04-24 00:45 | 58.99585 | -57.82123 | 37309 ft | 437 kts | 72° |
| 2026-04-24 00:46 | 59.01422 | -57.70891 | 37289 ft | 436 kts | 73° |
| 2026-04-24 00:46 | 59.03239 | -57.59665 | 37266 ft | 435 kts | 73° |
| 2026-04-24 00:47 | 59.05038 | -57.48440 | 37288 ft | 435 kts | 73° |
| 2026-04-24 00:47 | 59.06828 | -57.37195 | 37283 ft | 435 kts | 73° |
| 2026-04-24 00:48 | 59.08605 | -57.25959 | 37289 ft | 435 kts | 73° |
| 2026-04-24 00:48 | 59.10376 | -57.14691 | 37289 ft | 435 kts | 73° |
| 2026-04-24 00:49 | 59.12136 | -57.03415 | 37286 ft | 435 kts | 73° |
| 2026-04-24 00:49 | 59.13873 | -56.92215 | 37289 ft | 435 kts | 73° |
| 2026-04-24 00:50 | 59.15613 | -56.80927 | 37297 ft | 435 kts | 73° |
| 2026-04-24 00:50 | 59.17338 | -56.69654 | 37291 ft | 434 kts | 73° |
| 2026-04-24 00:51 | 59.19052 | -56.58383 | 37287 ft | 434 kts | 73° |
| 2026-04-24 00:51 | 59.20757 | -56.47094 | 37290 ft | 434 kts | 73° |
| 2026-04-24 00:52 | 59.22453 | -56.35790 | 37301 ft | 434 kts | 74° |
| 2026-04-24 00:52 | 59.24136 | -56.24493 | 37288 ft | 434 kts | 74° |
| 2026-04-24 00:53 | 59.25812 | -56.13169 | 37294 ft | 434 kts | 74° |
| 2026-04-24 00:53 | 59.27476 | -56.01843 | 37289 ft | 434 kts | 74° |
| 2026-04-24 00:54 | 59.29132 | -55.90497 | 37292 ft | 434 kts | 74° |
| 2026-04-24 00:54 | 59.30778 | -55.79143 | 37300 ft | 433 kts | 74° |
| 2026-04-24 00:55 | 59.32411 | -55.67797 | 37297 ft | 433 kts | 74° |
| 2026-04-24 00:55 | 59.34032 | -55.56457 | 37302 ft | 432 kts | 74° |
| 2026-04-24 00:56 | 59.35644 | -55.45098 | 37304 ft | 432 kts | 75° |
| 2026-04-24 00:56 | 59.37246 | -55.33731 | 37304 ft | 432 kts | 75° |
| 2026-04-24 00:57 | 59.38836 | -55.22367 | 37300 ft | 432 kts | 75° |
| 2026-04-24 00:58 | 59.41205 | -55.05286 | 37306 ft | 432 kts | 75° |
| 2026-04-24 00:58 | 59.42770 | -54.93897 | 37303 ft | 432 kts | 75° |
| 2026-04-24 00:59 | 59.44316 | -54.82567 | 37306 ft | 432 kts | 75° |
| 2026-04-24 00:59 | 59.45610 | -54.73012 | 37306 ft | 432 kts | 75° |
| 2026-04-24 01:00 | 59.47396 | -54.59739 | 37304 ft | 432 kts | 75° |
| 2026-04-24 01:00 | 59.48675 | -54.50158 | 37293 ft | 432 kts | 75° |
| 2026-04-24 01:01 | 59.50436 | -54.36875 | 37309 ft | 432 kts | 75° |
| 2026-04-24 01:01 | 59.51697 | -54.27288 | 37310 ft | 432 kts | 75° |
| 2026-04-24 01:02 | 59.53193 | -54.15834 | 37313 ft | 432 kts | 75° |
| 2026-04-24 01:02 | 59.54920 | -54.02503 | 37312 ft | 432 kts | 76° |
| 2026-04-24 01:03 | 59.56146 | -53.92968 | 37309 ft | 432 kts | 76° |
| 2026-04-24 01:03 | 59.57623 | -53.81401 | 37352 ft | 432 kts | 76° |
| 2026-04-24 01:04 | 59.59067 | -53.70005 | 37310 ft | 431 kts | 76° |
| 2026-04-24 01:04 | 59.60508 | -53.58541 | 37312 ft | 430 kts | 76° |
| 2026-04-24 01:05 | 59.61940 | -53.47063 | 37322 ft | 430 kts | 76° |
| 2026-04-24 01:05 | 59.63361 | -53.35576 | 37311 ft | 430 kts | 76° |
| 2026-04-24 01:06 | 59.64768 | -53.24120 | 37319 ft | 430 kts | 76° |
| 2026-04-24 01:06 | 59.66173 | -53.12582 | 37316 ft | 430 kts | 76° |
| 2026-04-24 01:07 | 59.67563 | -53.01072 | 37315 ft | 430 kts | 76° |
| 2026-04-24 01:07 | 59.68946 | -52.89538 | 37309 ft | 430 kts | 76° |
| 2026-04-24 01:08 | 59.70314 | -52.78030 | 37343 ft | 430 kts | 77° |
| 2026-04-24 01:08 | 59.71672 | -52.66509 | 37312 ft | 429 kts | 77° |
| 2026-04-24 01:09 | 59.73016 | -52.55009 | 37312 ft | 429 kts | 77° |
| 2026-04-24 01:09 | 59.74352 | -52.43491 | 37317 ft | 429 kts | 77° |
| 2026-04-24 01:10 | 59.75677 | -52.31969 | 37312 ft | 429 kts | 77° |
| 2026-04-24 01:10 | 59.76991 | -52.20439 | 37318 ft | 429 kts | 77° |
| 2026-04-24 01:11 | 59.78297 | -52.08891 | 37317 ft | 429 kts | 77° |
| 2026-04-24 01:11 | 59.79590 | -51.97360 | 37319 ft | 428 kts | 77° |
| 2026-04-24 01:12 | 59.80866 | -51.85879 | 37315 ft | 428 kts | 77° |
| 2026-04-24 01:12 | 59.82138 | -51.74327 | 37343 ft | 428 kts | 77° |
| 2026-04-24 01:13 | 59.83402 | -51.62758 | 37330 ft | 428 kts | 77° |
| 2026-04-24 01:13 | 59.84653 | -51.51198 | 37331 ft | 428 kts | 77° |
| 2026-04-24 01:14 | 59.85895 | -51.39626 | 37316 ft | 428 kts | 77° |
| 2026-04-24 01:14 | 59.87127 | -51.28045 | 37316 ft | 428 kts | 78° |
| 2026-04-24 01:15 | 59.88347 | -51.16469 | 37318 ft | 427 kts | 78° |
| 2026-04-24 01:15 | 59.89556 | -51.04884 | 37319 ft | 427 kts | 78° |
| 2026-04-24 01:16 | 59.90757 | -50.93279 | 37320 ft | 427 kts | 78° |
| 2026-04-24 01:16 | 59.91946 | -50.81682 | 37311 ft | 427 kts | 78° |
| 2026-04-24 01:17 | 59.93127 | -50.70063 | 37350 ft | 427 kts | 78° |
| 2026-04-24 01:17 | 59.94297 | -50.58432 | 37319 ft | 428 kts | 78° |
| 2026-04-24 01:18 | 59.95457 | -50.46797 | 37320 ft | 428 kts | 78° |
| 2026-04-24 01:18 | 59.96607 | -50.35142 | 37318 ft | 428 kts | 78° |
| 2026-04-24 01:19 | 59.97747 | -50.23484 | 37316 ft | 428 kts | 78° |
| 2026-04-24 01:19 | 59.98875 | -50.11836 | 37319 ft | 428 kts | 78° |
| 2026-04-24 01:20 | 59.99923 | -50.00150 | 37580 ft | 427 kts | 83° |
| 2026-04-24 01:20 | 60.00216 | -49.94242 | 37746 ft | 427 kts | 84° |
| 2026-04-24 01:20 | 60.00464 | -49.88329 | 37906 ft | 428 kts | 84° |
| 2026-04-24 01:20 | 60.00688 | -49.82394 | 38064 ft | 428 kts | 84° |
| 2026-04-24 01:21 | 60.00900 | -49.76450 | 38194 ft | 429 kts | 85° |
| 2026-04-24 01:21 | 60.01106 | -49.70496 | 38335 ft | 429 kts | 85° |
| 2026-04-24 01:21 | 60.01310 | -49.64546 | 38451 ft | 430 kts | 85° |
| 2026-04-24 01:21 | 60.01515 | -49.58576 | 38558 ft | 431 kts | 85° |
| 2026-04-24 01:22 | 60.01719 | -49.52587 | 38678 ft | 432 kts | 85° |
| 2026-04-24 01:22 | 60.01922 | -49.46597 | 38797 ft | 432 kts | 85° |
| 2026-04-24 01:22 | 60.02124 | -49.40593 | 38908 ft | 433 kts | 85° |
| 2026-04-24 01:22 | 60.02323 | -49.34582 | 39009 ft | 433 kts | 85° |
| 2026-04-24 01:23 | 60.02519 | -49.28582 | 39102 ft | 434 kts | 85° |
| 2026-04-24 01:23 | 60.02905 | -49.16527 | 39263 ft | 434 kts | 85° |
| 2026-04-24 01:24 | 60.03281 | -49.04422 | 39313 ft | 438 kts | 85° |
| 2026-04-24 01:24 | 60.03649 | -48.92236 | 39312 ft | 438 kts | 85° |
| 2026-04-24 01:25 | 60.04004 | -48.80065 | 39307 ft | 438 kts | 85° |
| 2026-04-24 01:25 | 60.04345 | -48.67984 | 39306 ft | 438 kts | 85° |
| 2026-04-24 01:26 | 60.04678 | -48.55812 | 39306 ft | 438 kts | 85° |
| 2026-04-24 01:26 | 60.05000 | -48.43637 | 39305 ft | 438 kts | 85° |
| 2026-04-24 01:27 | 60.05311 | -48.31465 | 39300 ft | 438 kts | 86° |
| 2026-04-24 01:27 | 60.05610 | -48.19285 | 39302 ft | 438 kts | 86° |
| 2026-04-24 01:28 | 60.05898 | -48.07102 | 39301 ft | 438 kts | 86° |
| 2026-04-24 01:28 | 60.06175 | -47.94918 | 39299 ft | 438 kts | 86° |
| 2026-04-24 01:29 | 60.06441 | -47.82736 | 39298 ft | 438 kts | 86° |
| 2026-04-24 01:29 | 60.06696 | -47.70540 | 39300 ft | 438 kts | 86° |
| 2026-04-24 01:30 | 60.06939 | -47.58353 | 39301 ft | 438 kts | 86° |
| 2026-04-24 01:30 | 60.07172 | -47.46146 | 39300 ft | 438 kts | 86° |
| 2026-04-24 01:31 | 60.07393 | -47.33961 | 39297 ft | 438 kts | 86° |
| 2026-04-24 01:31 | 60.07603 | -47.21759 | 39298 ft | 438 kts | 86° |
| 2026-04-24 01:32 | 60.07801 | -47.09573 | 39296 ft | 438 kts | 86° |
| 2026-04-24 01:32 | 60.07988 | -46.97365 | 39296 ft | 438 kts | 87° |
| 2026-04-24 01:33 | 60.08165 | -46.85158 | 39296 ft | 439 kts | 87° |
| 2026-04-24 01:33 | 60.08330 | -46.72903 | 39298 ft | 441 kts | 87° |
| 2026-04-24 01:34 | 60.08485 | -46.60611 | 39298 ft | 441 kts | 87° |
| 2026-04-24 01:34 | 60.08628 | -46.48330 | 39298 ft | 441 kts | 87° |
| 2026-04-24 01:35 | 60.08760 | -46.36027 | 39293 ft | 441 kts | 87° |
| 2026-04-24 01:35 | 60.08880 | -46.23736 | 39295 ft | 441 kts | 87° |
| 2026-04-24 01:36 | 60.08989 | -46.11447 | 39296 ft | 441 kts | 88° |
| 2026-04-24 01:36 | 60.09087 | -45.99142 | 39293 ft | 442 kts | 88° |
| 2026-04-24 01:37 | 60.09174 | -45.86832 | 39299 ft | 442 kts | 88° |
| 2026-04-24 01:37 | 60.09249 | -45.74514 | 39299 ft | 442 kts | 88° |
| 2026-04-24 01:38 | 60.09312 | -45.62277 | 39294 ft | 442 kts | 88° |
| 2026-04-24 01:38 | 60.09364 | -45.49954 | 39302 ft | 442 kts | 88° |
| 2026-04-24 01:39 | 60.09405 | -45.37634 | 39296 ft | 442 kts | 89° |
| 2026-04-24 01:39 | 60.09434 | -45.25308 | 39301 ft | 442 kts | 89° |
| 2026-04-24 01:40 | 60.09452 | -45.12973 | 39294 ft | 442 kts | 89° |
| 2026-04-24 01:40 | 60.09458 | -45.00642 | 39294 ft | 442 kts | 89° |
| 2026-04-24 01:41 | 60.09453 | -44.88312 | 39296 ft | 442 kts | 89° |
| 2026-04-24 01:41 | 60.09436 | -44.75972 | 39278 ft | 442 kts | 89° |
| 2026-04-24 01:42 | 60.09408 | -44.63657 | 39276 ft | 442 kts | 89° |
| 2026-04-24 01:42 | 60.09368 | -44.51321 | 39282 ft | 443 kts | 89° |
| 2026-04-24 01:43 | 60.09317 | -44.38988 | 39283 ft | 442 kts | 89° |
| 2026-04-24 01:43 | 60.09255 | -44.26659 | 39282 ft | 443 kts | 89° |
| 2026-04-24 01:44 | 60.09181 | -44.14334 | 39284 ft | 443 kts | 89° |
| 2026-04-24 01:44 | 60.09095 | -44.02010 | 39277 ft | 442 kts | 90° |
| 2026-04-24 01:45 | 60.08998 | -43.89670 | 39280 ft | 443 kts | 90° |
| 2026-04-24 01:45 | 60.08888 | -43.77307 | 39275 ft | 444 kts | 90° |
| 2026-04-24 01:46 | 60.08789 | -43.67028 | 39284 ft | 444 kts | 90° |
| 2026-04-24 01:46 | 60.08660 | -43.54658 | 39278 ft | 444 kts | 90° |
| 2026-04-24 01:47 | 60.08519 | -43.42294 | 39282 ft | 444 kts | 90° |
| 2026-04-24 01:47 | 60.08366 | -43.29921 | 39295 ft | 444 kts | 90° |
| 2026-04-24 01:48 | 60.08201 | -43.17560 | 39289 ft | 444 kts | 90° |
| 2026-04-24 01:48 | 60.08025 | -43.05180 | 39297 ft | 446 kts | 91° |
| 2026-04-24 01:49 | 60.07837 | -42.92724 | 39295 ft | 448 kts | 91° |
| 2026-04-24 01:49 | 60.07635 | -42.80240 | 39292 ft | 448 kts | 91° |
| 2026-04-24 01:50 | 60.07423 | -42.67786 | 39292 ft | 448 kts | 91° |
| 2026-04-24 01:50 | 60.07198 | -42.55290 | 39294 ft | 448 kts | 91° |
| 2026-04-24 01:51 | 60.06961 | -42.42804 | 39293 ft | 449 kts | 91° |
| 2026-04-24 01:51 | 60.06713 | -42.30338 | 39290 ft | 448 kts | 91° |
| 2026-04-24 01:52 | 60.06453 | -42.17868 | 39305 ft | 448 kts | 91° |
| 2026-04-24 01:52 | 60.06181 | -42.05367 | 39293 ft | 450 kts | 91° |
| 2026-04-24 01:53 | 60.05896 | -41.92846 | 39292 ft | 451 kts | 92° |
| 2026-04-24 01:53 | 60.05601 | -41.80388 | 39287 ft | 451 kts | 92° |
| 2026-04-24 01:54 | 60.05290 | -41.67777 | 39290 ft | 451 kts | 92° |
| 2026-04-24 01:54 | 60.04972 | -41.55341 | 39295 ft | 451 kts | 92° |
| 2026-04-24 01:55 | 60.04640 | -41.42805 | 39288 ft | 451 kts | 92° |
| 2026-04-24 01:55 | 60.04295 | -41.30276 | 39293 ft | 451 kts | 92° |
| 2026-04-24 01:56 | 60.03939 | -41.17751 | 39289 ft | 452 kts | 92° |
| 2026-04-24 01:56 | 60.03570 | -41.05182 | 39286 ft | 453 kts | 92° |
| 2026-04-24 01:57 | 60.03189 | -40.92618 | 39289 ft | 453 kts | 92° |
| 2026-04-24 01:57 | 60.02795 | -40.80041 | 39288 ft | 453 kts | 93° |
| 2026-04-24 01:58 | 60.02390 | -40.67489 | 39285 ft | 453 kts | 93° |
| 2026-04-24 01:58 | 60.01973 | -40.54926 | 39285 ft | 453 kts | 93° |
| 2026-04-24 01:59 | 60.01543 | -40.42351 | 39285 ft | 453 kts | 93° |
| 2026-04-24 01:59 | 60.01102 | -40.29797 | 39284 ft | 453 kts | 93° |
| 2026-04-24 02:00 | 60.00648 | -40.17210 | 39283 ft | 455 kts | 93° |
| 2026-04-24 02:00 | 60.00184 | -40.04689 | 39283 ft | 455 kts | 94° |
| 2026-04-24 02:01 | 59.99646 | -39.92095 | 39283 ft | 455 kts | 96° |
| 2026-04-24 02:01 | 59.98851 | -39.79547 | 39282 ft | 455 kts | 97° |
| 2026-04-24 02:02 | 59.98017 | -39.67018 | 39282 ft | 455 kts | 96° |
| 2026-04-24 02:02 | 59.97206 | -39.54468 | 39276 ft | 455 kts | 96° |
| 2026-04-24 02:03 | 59.96003 | -39.35664 | 39281 ft | 456 kts | 96° |
| 2026-04-24 02:03 | 59.95187 | -39.23115 | 39272 ft | 456 kts | 96° |
| 2026-04-24 02:04 | 59.94357 | -39.10570 | 39277 ft | 456 kts | 97° |
| 2026-04-24 02:04 | 59.93515 | -38.98033 | 39276 ft | 456 kts | 97° |
| 2026-04-24 02:05 | 59.92660 | -38.85486 | 39271 ft | 456 kts | 97° |
| 2026-04-24 02:05 | 59.91795 | -38.72974 | 39274 ft | 456 kts | 97° |
| 2026-04-24 02:06 | 59.90918 | -38.60458 | 39274 ft | 456 kts | 97° |
| 2026-04-24 02:06 | 59.90027 | -38.47929 | 39272 ft | 457 kts | 97° |
| 2026-04-24 02:07 | 59.89124 | -38.35398 | 39265 ft | 458 kts | 97° |
| 2026-04-24 02:07 | 59.88207 | -38.22841 | 39271 ft | 458 kts | 97° |
| 2026-04-24 02:08 | 59.87279 | -38.10321 | 39264 ft | 458 kts | 97° |
| 2026-04-24 02:08 | 59.86338 | -37.97784 | 39271 ft | 458 kts | 98° |
| 2026-04-24 02:09 | 59.85386 | -37.85267 | 39270 ft | 458 kts | 98° |
| 2026-04-24 02:09 | 59.84423 | -37.72767 | 39261 ft | 458 kts | 98° |
| 2026-04-24 02:10 | 59.83446 | -37.60243 | 39269 ft | 458 kts | 98° |
| 2026-04-24 02:10 | 59.82455 | -37.47706 | 39263 ft | 460 kts | 98° |
| 2026-04-24 02:11 | 59.81452 | -37.35161 | 39261 ft | 460 kts | 98° |
| 2026-04-24 02:11 | 59.80436 | -37.22626 | 39262 ft | 459 kts | 98° |
| 2026-04-24 02:12 | 59.79409 | -37.10114 | 39257 ft | 459 kts | 98° |
| 2026-04-24 02:12 | 59.78371 | -36.97604 | 39257 ft | 459 kts | 98° |
| 2026-04-24 02:13 | 59.77319 | -36.85093 | 39254 ft | 459 kts | 98° |
| 2026-04-24 02:13 | 59.76257 | -36.72597 | 39258 ft | 460 kts | 99° |
| 2026-04-24 02:14 | 59.75180 | -36.60077 | 39256 ft | 461 kts | 99° |
| 2026-04-24 02:14 | 59.74088 | -36.47536 | 39255 ft | 462 kts | 99° |
| 2026-04-24 02:15 | 59.72992 | -36.35092 | 39257 ft | 461 kts | 99° |
| 2026-04-24 02:15 | 59.71877 | -36.22573 | 39257 ft | 461 kts | 99° |
| 2026-04-24 02:16 | 59.70751 | -36.10067 | 39252 ft | 461 kts | 99° |
| 2026-04-24 02:16 | 59.69613 | -35.97576 | 39258 ft | 461 kts | 99° |
| 2026-04-24 02:17 | 59.68464 | -35.85099 | 39257 ft | 461 kts | 99° |
| 2026-04-24 02:17 | 59.67301 | -35.72609 | 39249 ft | 461 kts | 99° |
| 2026-04-24 02:18 | 59.66129 | -35.60154 | 39252 ft | 461 kts | 100° |
| 2026-04-24 02:18 | 59.64942 | -35.47682 | 39251 ft | 461 kts | 100° |
| 2026-04-24 02:19 | 59.63746 | -35.35234 | 39246 ft | 461 kts | 100° |
| 2026-04-24 02:19 | 59.62535 | -35.22777 | 39248 ft | 461 kts | 100° |
| 2026-04-24 02:20 | 59.61315 | -35.10347 | 39250 ft | 461 kts | 100° |
| 2026-04-24 02:20 | 59.60082 | -34.97919 | 39241 ft | 462 kts | 100° |
| 2026-04-24 02:21 | 59.58834 | -34.85467 | 39242 ft | 463 kts | 101° |
| 2026-04-24 02:21 | 59.57573 | -34.73012 | 39238 ft | 463 kts | 101° |
| 2026-04-24 02:22 | 59.56301 | -34.60575 | 39232 ft | 463 kts | 101° |
| 2026-04-24 02:22 | 59.55015 | -34.48132 | 39233 ft | 463 kts | 101° |
| 2026-04-24 02:23 | 59.53719 | -34.35703 | 39226 ft | 463 kts | 101° |
| 2026-04-24 02:23 | 59.52409 | -34.23275 | 39227 ft | 463 kts | 101° |
| 2026-04-24 02:24 | 59.51099 | -34.10958 | 39235 ft | 463 kts | 101° |
| 2026-04-24 02:24 | 59.49767 | -33.98561 | 39224 ft | 463 kts | 101° |
| 2026-04-24 02:25 | 59.48424 | -33.86170 | 39228 ft | 463 kts | 102° |
| 2026-04-24 02:25 | 59.47070 | -33.73803 | 39232 ft | 463 kts | 102° |
| 2026-04-24 02:26 | 59.45704 | -33.61442 | 39208 ft | 463 kts | 102° |
| 2026-04-24 02:26 | 59.44325 | -33.49078 | 39222 ft | 463 kts | 102° |
| 2026-04-24 02:27 | 59.42933 | -33.36714 | 39224 ft | 463 kts | 102° |
| 2026-04-24 02:27 | 59.41531 | -33.24378 | 39217 ft | 462 kts | 102° |
| 2026-04-24 02:28 | 59.40120 | -33.12071 | 39212 ft | 462 kts | 102° |
| 2026-04-24 02:28 | 59.38700 | -32.99794 | 39214 ft | 461 kts | 102° |
| 2026-04-24 02:29 | 59.37268 | -32.87531 | 39212 ft | 462 kts | 102° |
| 2026-04-24 02:29 | 59.35824 | -32.75271 | 39212 ft | 461 kts | 103° |
| 2026-04-24 02:30 | 59.34369 | -32.63017 | 39202 ft | 462 kts | 103° |
| 2026-04-24 02:30 | 59.32901 | -32.50770 | 39217 ft | 462 kts | 103° |
| 2026-04-24 02:31 | 59.31674 | -32.40610 | 39206 ft | 460 kts | 103° |
| 2026-04-24 02:31 | 59.30190 | -32.28424 | 39198 ft | 460 kts | 103° |
| 2026-04-24 02:32 | 59.28697 | -32.16261 | 39203 ft | 460 kts | 103° |
| 2026-04-24 02:32 | 59.27192 | -32.04110 | 39196 ft | 460 kts | 103° |
| 2026-04-24 02:33 | 59.25676 | -31.91973 | 39198 ft | 460 kts | 103° |
| 2026-04-24 02:33 | 59.24147 | -31.79829 | 39196 ft | 460 kts | 103° |
| 2026-04-24 02:34 | 59.22609 | -31.67710 | 39200 ft | 461 kts | 104° |
| 2026-04-24 02:34 | 59.21057 | -31.55584 | 39192 ft | 460 kts | 104° |
| 2026-04-24 02:35 | 59.19499 | -31.43512 | 39195 ft | 459 kts | 104° |
| 2026-04-24 02:35 | 59.17928 | -31.31439 | 39184 ft | 459 kts | 104° |
| 2026-04-24 02:36 | 59.16346 | -31.19378 | 39190 ft | 459 kts | 104° |
| 2026-04-24 02:36 | 59.14762 | -31.07393 | 39193 ft | 459 kts | 104° |
| 2026-04-24 02:37 | 59.13159 | -30.95359 | 39176 ft | 459 kts | 104° |
| 2026-04-24 02:37 | 59.11544 | -30.83333 | 39183 ft | 459 kts | 104° |
| 2026-04-24 02:38 | 59.09917 | -30.71308 | 39187 ft | 459 kts | 104° |
| 2026-04-24 02:38 | 59.08281 | -30.59313 | 39176 ft | 459 kts | 105° |
| 2026-04-24 02:39 | 59.06630 | -30.47303 | 39186 ft | 459 kts | 105° |
| 2026-04-24 02:39 | 59.04972 | -30.35330 | 39176 ft | 459 kts | 105° |
| 2026-04-24 02:40 | 59.03300 | -30.23353 | 39176 ft | 459 kts | 105° |
| 2026-04-24 02:40 | 59.01618 | -30.11388 | 39182 ft | 459 kts | 105° |
| 2026-04-24 02:41 | 58.99926 | -29.99445 | 39182 ft | 459 kts | 105° |
| 2026-04-24 02:41 | 58.98156 | -29.87527 | 39169 ft | 461 kts | 106° |
| 2026-04-24 02:42 | 58.96307 | -29.75618 | 39175 ft | 461 kts | 107° |
| 2026-04-24 02:42 | 58.94456 | -29.63734 | 39171 ft | 461 kts | 107° |
| 2026-04-24 02:43 | 58.92606 | -29.51850 | 39171 ft | 461 kts | 107° |
| 2026-04-24 02:43 | 58.90751 | -29.39983 | 39162 ft | 461 kts | 107° |
| 2026-04-24 02:44 | 58.88885 | -29.28124 | 39170 ft | 461 kts | 107° |
| 2026-04-24 02:44 | 58.87006 | -29.16267 | 39170 ft | 461 kts | 107° |
| 2026-04-24 02:45 | 58.85115 | -29.04419 | 39159 ft | 461 kts | 107° |
| 2026-04-24 02:45 | 58.83212 | -28.92577 | 39171 ft | 462 kts | 107° |
| 2026-04-24 02:46 | 58.81295 | -28.80731 | 39170 ft | 462 kts | 107° |
| 2026-04-24 02:46 | 58.79369 | -28.68904 | 39160 ft | 462 kts | 107° |
| 2026-04-24 02:47 | 58.77431 | -28.57089 | 39170 ft | 462 kts | 107° |
| 2026-04-24 02:47 | 58.75484 | -28.45288 | 39170 ft | 463 kts | 108° |
| 2026-04-24 02:48 | 58.73524 | -28.33492 | 39162 ft | 462 kts | 108° |
| 2026-04-24 02:48 | 58.71553 | -28.21712 | 39167 ft | 463 kts | 108° |
| 2026-04-24 02:49 | 58.69570 | -28.09938 | 39154 ft | 462 kts | 108° |
| 2026-04-24 02:49 | 58.67575 | -27.98165 | 39166 ft | 464 kts | 108° |
| 2026-04-24 02:50 | 58.65567 | -27.86395 | 39170 ft | 464 kts | 108° |
| 2026-04-24 02:50 | 58.63547 | -27.74629 | 39167 ft | 464 kts | 109° |
| 2026-04-24 02:51 | 58.61532 | -27.62970 | 39165 ft | 464 kts | 109° |
| 2026-04-24 02:51 | 58.59489 | -27.51227 | 39165 ft | 464 kts | 109° |
| 2026-04-24 02:52 | 58.57441 | -27.39523 | 39165 ft | 464 kts | 109° |
| 2026-04-24 02:52 | 58.55377 | -27.27805 | 39166 ft | 464 kts | 109° |
| 2026-04-24 02:53 | 58.53305 | -27.16116 | 39160 ft | 464 kts | 109° |
| 2026-04-24 02:53 | 58.51218 | -27.04419 | 39165 ft | 465 kts | 109° |
| 2026-04-24 02:54 | 58.49120 | -26.92732 | 39167 ft | 465 kts | 109° |
| 2026-04-24 02:54 | 58.47011 | -26.81058 | 39168 ft | 465 kts | 109° |
| 2026-04-24 02:55 | 58.44893 | -26.69403 | 39169 ft | 464 kts | 109° |
| 2026-04-24 02:55 | 58.42764 | -26.57763 | 39162 ft | 464 kts | 110° |
| 2026-04-24 02:56 | 58.40626 | -26.46142 | 39168 ft | 464 kts | 110° |
| 2026-04-24 02:56 | 58.38479 | -26.34546 | 39168 ft | 464 kts | 110° |
| 2026-04-24 02:57 | 58.36318 | -26.22949 | 39165 ft | 464 kts | 110° |
| 2026-04-24 02:57 | 58.34148 | -26.11369 | 39174 ft | 465 kts | 110° |
| 2026-04-24 02:58 | 58.31965 | -25.99789 | 39165 ft | 465 kts | 110° |
| 2026-04-24 02:58 | 58.29768 | -25.88206 | 39165 ft | 465 kts | 110° |
| 2026-04-24 02:59 | 58.27565 | -25.76663 | 39164 ft | 465 kts | 110° |
| 2026-04-24 02:59 | 58.25349 | -25.65116 | 39159 ft | 465 kts | 110° |
| 2026-04-24 03:00 | 58.23121 | -25.53581 | 39162 ft | 465 kts | 110° |
| 2026-04-24 03:00 | 58.20902 | -25.42154 | 39170 ft | 466 kts | 111° |
| 2026-04-24 03:01 | 58.18651 | -25.30630 | 39163 ft | 467 kts | 111° |
| 2026-04-24 03:01 | 58.16384 | -25.19096 | 39160 ft | 467 kts | 111° |
| 2026-04-24 03:02 | 58.14107 | -25.07579 | 39165 ft | 467 kts | 111° |
| 2026-04-24 03:02 | 58.11821 | -24.96084 | 39166 ft | 467 kts | 111° |
| 2026-04-24 03:03 | 58.09527 | -24.84613 | 39165 ft | 467 kts | 111° |
| 2026-04-24 03:03 | 58.07218 | -24.73135 | 39166 ft | 467 kts | 112° |
| 2026-04-24 03:04 | 58.04900 | -24.61677 | 39159 ft | 467 kts | 112° |
| 2026-04-24 03:04 | 58.02576 | -24.50253 | 39157 ft | 466 kts | 112° |
| 2026-04-24 03:05 | 58.00241 | -24.38846 | 39169 ft | 466 kts | 112° |
| 2026-04-24 03:05 | 57.97896 | -24.27450 | 39168 ft | 466 kts | 112° |
| 2026-04-24 03:06 | 57.95543 | -24.16079 | 39163 ft | 466 kts | 112° |
| 2026-04-24 03:06 | 57.93177 | -24.04715 | 39168 ft | 466 kts | 113° |
| 2026-04-24 03:07 | 57.90802 | -23.93366 | 39172 ft | 466 kts | 113° |
| 2026-04-24 03:07 | 57.88422 | -23.82055 | 39165 ft | 465 kts | 113° |
| 2026-04-24 03:08 | 57.84829 | -23.65100 | 39177 ft | 466 kts | 113° |
| 2026-04-24 03:09 | 57.82433 | -23.53873 | 39168 ft | 466 kts | 113° |
| 2026-04-24 03:09 | 57.80011 | -23.42584 | 39177 ft | 466 kts | 113° |
| 2026-04-24 03:10 | 57.77581 | -23.31320 | 39165 ft | 466 kts | 114° |
| 2026-04-24 03:10 | 57.75141 | -23.20071 | 39166 ft | 466 kts | 114° |
| 2026-04-24 03:11 | 57.72689 | -23.08829 | 39179 ft | 466 kts | 114° |
| 2026-04-24 03:11 | 57.70230 | -22.97616 | 39175 ft | 466 kts | 114° |
| 2026-04-24 03:12 | 57.67759 | -22.86404 | 39160 ft | 467 kts | 114° |
| 2026-04-24 03:12 | 57.65274 | -22.75192 | 39180 ft | 467 kts | 114° |
| 2026-04-24 03:13 | 57.62778 | -22.63995 | 39177 ft | 467 kts | 114° |
| 2026-04-24 03:13 | 57.60274 | -22.52813 | 39176 ft | 467 kts | 114° |
| 2026-04-24 03:14 | 57.57759 | -22.41646 | 39178 ft | 467 kts | 114° |
| 2026-04-24 03:14 | 57.55236 | -22.30504 | 39179 ft | 467 kts | 114° |
| 2026-04-24 03:15 | 57.52707 | -22.19391 | 39178 ft | 466 kts | 114° |
| 2026-04-24 03:15 | 57.50165 | -22.08283 | 39176 ft | 467 kts | 115° |
| 2026-04-24 03:16 | 57.47609 | -21.97170 | 39177 ft | 468 kts | 115° |
| 2026-04-24 03:16 | 57.45044 | -21.86074 | 39175 ft | 468 kts | 115° |
| 2026-04-24 03:17 | 57.42468 | -21.74991 | 39182 ft | 468 kts | 115° |
| 2026-04-24 03:17 | 57.39903 | -21.64010 | 39181 ft | 466 kts | 115° |
| 2026-04-24 03:18 | 57.37314 | -21.52984 | 39179 ft | 466 kts | 115° |
| 2026-04-24 03:18 | 57.35139 | -21.43766 | 39186 ft | 466 kts | 115° |
| 2026-04-24 03:19 | 57.32535 | -21.32777 | 39164 ft | 466 kts | 115° |
| 2026-04-24 03:19 | 57.29920 | -21.21802 | 39180 ft | 467 kts | 116° |
| 2026-04-24 03:20 | 57.27304 | -21.10875 | 39188 ft | 468 kts | 116° |
| 2026-04-24 03:20 | 57.24661 | -20.99894 | 39179 ft | 467 kts | 116° |
| 2026-04-24 03:21 | 57.22017 | -20.88962 | 39180 ft | 466 kts | 116° |
| 2026-04-24 03:21 | 57.19363 | -20.78042 | 39188 ft | 466 kts | 116° |
| 2026-04-24 03:22 | 57.16702 | -20.67150 | 39189 ft | 466 kts | 116° |
| 2026-04-24 03:22 | 57.14031 | -20.56273 | 39189 ft | 466 kts | 116° |
| 2026-04-24 03:23 | 57.11347 | -20.45392 | 39190 ft | 467 kts | 116° |
| 2026-04-24 03:23 | 57.08645 | -20.34499 | 39192 ft | 468 kts | 116° |
| 2026-04-24 03:24 | 57.05932 | -20.23609 | 39194 ft | 468 kts | 116° |
| 2026-04-24 03:24 | 57.03212 | -20.12748 | 39192 ft | 468 kts | 117° |
| 2026-04-24 03:25 | 57.00507 | -20.01891 | 39189 ft | 469 kts | 114° |
| 2026-04-24 03:25 | 56.98336 | -19.90573 | 39197 ft | 470 kts | 110° |
| 2026-04-24 03:26 | 56.96311 | -19.79174 | 39195 ft | 470 kts | 110° |
| 2026-04-24 03:26 | 56.94300 | -19.67763 | 39197 ft | 472 kts | 110° |
| 2026-04-24 03:27 | 56.92268 | -19.56345 | 39197 ft | 472 kts | 110° |
| 2026-04-24 03:27 | 56.90220 | -19.44946 | 39197 ft | 471 kts | 110° |
| 2026-04-24 03:28 | 56.88162 | -19.33578 | 39208 ft | 471 kts | 110° |
| 2026-04-24 03:28 | 56.86094 | -19.22227 | 39200 ft | 471 kts | 110° |
| 2026-04-24 03:29 | 56.84031 | -19.10963 | 39198 ft | 471 kts | 111° |
| 2026-04-24 03:29 | 56.81930 | -18.99561 | 39202 ft | 471 kts | 111° |
| 2026-04-24 03:30 | 56.79842 | -18.88303 | 39206 ft | 472 kts | 111° |
| 2026-04-24 03:30 | 56.77726 | -18.76961 | 39209 ft | 472 kts | 111° |
| 2026-04-24 03:31 | 56.75606 | -18.65659 | 39211 ft | 471 kts | 111° |
| 2026-04-24 03:31 | 56.73476 | -18.54370 | 39208 ft | 471 kts | 111° |
| 2026-04-24 03:32 | 56.71335 | -18.43098 | 39214 ft | 471 kts | 111° |
| 2026-04-24 03:32 | 56.69185 | -18.31841 | 39215 ft | 471 kts | 111° |
| 2026-04-24 03:33 | 56.67025 | -18.20597 | 39211 ft | 471 kts | 111° |
| 2026-04-24 03:33 | 56.64855 | -18.09367 | 39220 ft | 471 kts | 111° |
| 2026-04-24 03:34 | 56.62675 | -17.98148 | 39219 ft | 471 kts | 111° |
| 2026-04-24 03:34 | 56.60488 | -17.86962 | 39213 ft | 470 kts | 112° |
| 2026-04-24 03:35 | 56.58291 | -17.75785 | 39216 ft | 470 kts | 112° |
| 2026-04-24 03:35 | 56.56083 | -17.64620 | 39214 ft | 470 kts | 112° |
| 2026-04-24 03:36 | 56.53867 | -17.53476 | 39219 ft | 471 kts | 112° |
| 2026-04-24 03:36 | 56.51635 | -17.42315 | 39219 ft | 471 kts | 112° |
| 2026-04-24 03:37 | 56.49394 | -17.31174 | 39219 ft | 471 kts | 112° |
| 2026-04-24 03:37 | 56.47142 | -17.20041 | 39219 ft | 471 kts | 112° |
| 2026-04-24 03:38 | 56.44884 | -17.08936 | 39222 ft | 470 kts | 112° |
| 2026-04-24 03:38 | 56.42616 | -16.97847 | 39224 ft | 470 kts | 113° |
| 2026-04-24 03:39 | 56.40338 | -16.86770 | 39221 ft | 470 kts | 113° |
| 2026-04-24 03:39 | 56.38052 | -16.75713 | 39233 ft | 470 kts | 113° |
| 2026-04-24 03:40 | 56.35760 | -16.64690 | 39227 ft | 470 kts | 113° |
| 2026-04-24 03:40 | 56.33472 | -16.53747 | 39227 ft | 470 kts | 113° |
| 2026-04-24 03:41 | 56.31157 | -16.42736 | 39235 ft | 470 kts | 113° |
| 2026-04-24 03:41 | 56.28834 | -16.31743 | 39231 ft | 469 kts | 114° |
| 2026-04-24 03:42 | 56.26507 | -16.20790 | 39228 ft | 469 kts | 114° |
| 2026-04-24 03:42 | 56.24162 | -16.09816 | 39239 ft | 471 kts | 114° |
| 2026-04-24 03:43 | 56.21801 | -15.98824 | 39236 ft | 471 kts | 114° |
| 2026-04-24 03:43 | 56.19435 | -15.87863 | 39238 ft | 471 kts | 114° |
| 2026-04-24 03:44 | 56.17059 | -15.76918 | 39241 ft | 471 kts | 115° |
| 2026-04-24 03:44 | 56.14670 | -15.65969 | 39241 ft | 471 kts | 115° |
| 2026-04-24 03:45 | 56.12272 | -15.55038 | 39230 ft | 471 kts | 115° |
| 2026-04-24 03:45 | 56.09870 | -15.44143 | 39242 ft | 470 kts | 115° |
| 2026-04-24 03:46 | 56.07455 | -15.33253 | 39240 ft | 470 kts | 115° |
| 2026-04-24 03:46 | 56.05031 | -15.22378 | 39239 ft | 470 kts | 115° |
| 2026-04-24 03:47 | 56.02600 | -15.11529 | 39242 ft | 470 kts | 115° |
| 2026-04-24 03:47 | 56.00539 | -15.00485 | 39246 ft | 475 kts | 105° |
| 2026-04-24 03:48 | 55.99994 | -14.88633 | 39229 ft | 481 kts | 95° |
| 2026-04-24 03:48 | 55.99999 | -14.76644 | 39248 ft | 484 kts | 93° |
| 2026-04-24 03:49 | 56.00071 | -14.64608 | 39254 ft | 484 kts | 93° |
| 2026-04-24 03:49 | 56.00108 | -14.52576 | 39251 ft | 484 kts | 93° |
| 2026-04-24 03:50 | 56.00110 | -14.40555 | 39257 ft | 484 kts | 94° |
| 2026-04-24 03:50 | 56.00095 | -14.28535 | 39237 ft | 483 kts | 94° |
| 2026-04-24 03:51 | 56.00067 | -14.16559 | 39257 ft | 481 kts | 94° |
| 2026-04-24 03:51 | 55.99926 | -14.04628 | 39256 ft | 478 kts | 99° |
| 2026-04-24 03:52 | 55.98427 | -13.93237 | 39264 ft | 469 kts | 114° |
| 2026-04-24 03:52 | 55.96061 | -13.82404 | 39262 ft | 468 kts | 116° |
| 2026-04-24 03:53 | 55.93558 | -13.71698 | 39259 ft | 468 kts | 116° |
| 2026-04-24 03:53 | 55.91045 | -13.60989 | 39263 ft | 469 kts | 116° |
| 2026-04-24 03:54 | 55.88536 | -13.50245 | 39262 ft | 469 kts | 116° |
| 2026-04-24 03:54 | 55.86027 | -13.39509 | 39265 ft | 469 kts | 116° |
| 2026-04-24 03:55 | 55.83532 | -13.28874 | 39280 ft | 468 kts | 116° |
| 2026-04-24 03:55 | 55.80999 | -13.18138 | 39258 ft | 467 kts | 116° |
| 2026-04-24 03:56 | 55.78478 | -13.07512 | 39268 ft | 467 kts | 116° |
| 2026-04-24 03:56 | 55.75946 | -12.96895 | 39269 ft | 467 kts | 116° |
| 2026-04-24 03:57 | 55.73419 | -12.86347 | 39272 ft | 468 kts | 116° |
| 2026-04-24 03:57 | 55.70849 | -12.75671 | 39274 ft | 468 kts | 116° |
| 2026-04-24 03:58 | 55.68301 | -12.65139 | 39273 ft | 468 kts | 116° |
| 2026-04-24 03:58 | 55.65729 | -12.54560 | 39271 ft | 468 kts | 116° |
| 2026-04-24 03:59 | 55.63148 | -12.43993 | 39271 ft | 467 kts | 117° |
| 2026-04-24 03:59 | 55.60564 | -12.33464 | 39265 ft | 467 kts | 116° |
| 2026-04-24 04:00 | 55.57965 | -12.22928 | 39277 ft | 468 kts | 116° |
| 2026-04-24 04:00 | 55.55357 | -12.12404 | 39278 ft | 467 kts | 117° |
| 2026-04-24 04:01 | 55.52743 | -12.01905 | 39286 ft | 467 kts | 117° |
| 2026-04-24 04:01 | 55.50116 | -11.91406 | 39282 ft | 467 kts | 117° |
| 2026-04-24 04:02 | 55.47481 | -11.80922 | 39287 ft | 467 kts | 117° |
| 2026-04-24 04:02 | 55.44836 | -11.70453 | 39287 ft | 467 kts | 117° |
| 2026-04-24 04:03 | 55.42187 | -11.60012 | 39290 ft | 467 kts | 117° |
| 2026-04-24 04:03 | 55.39526 | -11.49576 | 39290 ft | 467 kts | 117° |
| 2026-04-24 04:04 | 55.36853 | -11.39141 | 39290 ft | 467 kts | 117° |
| 2026-04-24 04:04 | 55.34176 | -11.28737 | 39287 ft | 467 kts | 117° |
| 2026-04-24 04:05 | 55.31944 | -11.20102 | 39287 ft | 467 kts | 117° |
| 2026-04-24 04:05 | 55.29250 | -11.09724 | 39275 ft | 467 kts | 117° |
| 2026-04-24 04:06 | 55.26543 | -10.99345 | 39290 ft | 468 kts | 117° |
| 2026-04-24 04:06 | 55.23830 | -10.88985 | 39290 ft | 468 kts | 117° |
| 2026-04-24 04:07 | 55.21108 | -10.78642 | 39295 ft | 468 kts | 117° |
| 2026-04-24 04:07 | 55.18375 | -10.68303 | 39295 ft | 468 kts | 117° |
| 2026-04-24 04:08 | 55.15633 | -10.57978 | 39300 ft | 468 kts | 117° |
| 2026-04-24 04:08 | 55.12886 | -10.47681 | 39301 ft | 468 kts | 118° |
| 2026-04-24 04:09 | 55.10122 | -10.37371 | 39298 ft | 469 kts | 117° |
| 2026-04-24 04:09 | 55.07348 | -10.27067 | 39302 ft | 469 kts | 117° |
| 2026-04-24 04:10 | 55.04564 | -10.16771 | 39297 ft | 469 kts | 117° |
| 2026-04-24 04:10 | 55.01772 | -10.06493 | 39306 ft | 469 kts | 117° |
| 2026-04-24 04:11 | 54.97366 | -9.91288 | 39303 ft | 468 kts | 122° |
| 2026-04-24 04:11 | 54.94016 | -9.81597 | 39304 ft | 467 kts | 123° |
| 2026-04-24 04:12 | 54.90659 | -9.71910 | 39303 ft | 468 kts | 123° |
| 2026-04-24 04:12 | 54.87370 | -9.62233 | 39299 ft | 468 kts | 122° |
| 2026-04-24 04:13 | 54.84081 | -9.52485 | 39308 ft | 468 kts | 122° |
| 2026-04-24 04:13 | 54.80790 | -9.42755 | 39310 ft | 468 kts | 122° |
| 2026-04-24 04:14 | 54.77491 | -9.33049 | 39309 ft | 468 kts | 122° |
| 2026-04-24 04:14 | 54.74181 | -9.23358 | 39308 ft | 468 kts | 122° |
| 2026-04-24 04:15 | 54.70856 | -9.13665 | 39308 ft | 469 kts | 122° |
| 2026-04-24 04:15 | 54.67520 | -9.03975 | 39311 ft | 469 kts | 122° |
| 2026-04-24 04:16 | 54.64179 | -8.94305 | 39311 ft | 468 kts | 122° |
| 2026-04-24 04:16 | 54.60834 | -8.84666 | 39317 ft | 468 kts | 122° |
| 2026-04-24 04:17 | 54.57479 | -8.75035 | 39317 ft | 468 kts | 123° |
| 2026-04-24 04:17 | 54.54116 | -8.65419 | 39316 ft | 468 kts | 123° |
| 2026-04-24 04:18 | 54.50749 | -8.55831 | 39320 ft | 469 kts | 122° |
| 2026-04-24 04:18 | 54.47378 | -8.46267 | 39326 ft | 471 kts | 122° |
| 2026-04-24 04:19 | 54.43978 | -8.36560 | 39549 ft | 471 kts | 120° |
| 2026-04-24 04:19 | 54.42436 | -8.31595 | 39711 ft | 471 kts | 118° |
| 2026-04-24 04:19 | 54.40980 | -8.26569 | 39839 ft | 471 kts | 117° |
| 2026-04-24 04:20 | 54.39541 | -8.21510 | 39965 ft | 472 kts | 117° |
| 2026-04-24 04:20 | 54.38092 | -8.16456 | 40089 ft | 472 kts | 117° |
| 2026-04-24 04:20 | 54.36624 | -8.11418 | 40220 ft | 472 kts | 118° |
| 2026-04-24 04:20 | 54.35142 | -8.06409 | 40326 ft | 472 kts | 118° |
| 2026-04-24 04:21 | 54.33644 | -8.01405 | 40439 ft | 472 kts | 118° |
| 2026-04-24 04:21 | 54.32132 | -7.96393 | 40490 ft | 474 kts | 118° |
| 2026-04-24 04:21 | 54.29094 | -7.86378 | 40681 ft | 474 kts | 118° |
| 2026-04-24 04:22 | 54.27569 | -7.81365 | 40810 ft | 474 kts | 118° |
| 2026-04-24 04:22 | 54.26043 | -7.76357 | 40918 ft | 474 kts | 118° |
| 2026-04-24 04:22 | 54.22992 | -7.66367 | 41129 ft | 474 kts | 118° |
| 2026-04-24 04:23 | 54.19927 | -7.56370 | 41314 ft | 475 kts | 118° |
| 2026-04-24 04:23 | 54.16854 | -7.46390 | 41351 ft | 475 kts | 118° |
| 2026-04-24 04:24 | 54.13768 | -7.36410 | 41353 ft | 476 kts | 118° |
| 2026-04-24 04:24 | 54.10666 | -7.26419 | 41349 ft | 477 kts | 119° |
| 2026-04-24 04:25 | 54.07555 | -7.16441 | 41352 ft | 477 kts | 119° |
| 2026-04-24 04:25 | 54.04434 | -7.06474 | 41351 ft | 477 kts | 119° |
| 2026-04-24 04:26 | 54.01310 | -6.96535 | 41352 ft | 477 kts | 119° |
| 2026-04-24 04:26 | 53.98169 | -6.86588 | 41351 ft | 477 kts | 119° |
| 2026-04-24 04:27 | 53.95047 | -6.76740 | 41352 ft | 478 kts | 119° |
| 2026-04-24 04:27 | 53.91886 | -6.66807 | 41351 ft | 478 kts | 119° |
| 2026-04-24 04:28 | 53.88715 | -6.56885 | 41352 ft | 479 kts | 119° |
| 2026-04-24 04:28 | 53.85537 | -6.46980 | 41352 ft | 479 kts | 119° |
| 2026-04-24 04:29 | 53.82347 | -6.37080 | 41350 ft | 479 kts | 119° |
| 2026-04-24 04:29 | 53.79151 | -6.27204 | 41349 ft | 479 kts | 119° |
| 2026-04-24 04:30 | 53.75941 | -6.17321 | 41352 ft | 481 kts | 119° |
| 2026-04-24 04:30 | 53.72708 | -6.07410 | 41350 ft | 482 kts | 119° |
| 2026-04-24 04:31 | 53.69465 | -5.97507 | 41347 ft | 482 kts | 120° |
| 2026-04-24 04:31 | 53.66217 | -5.87628 | 41344 ft | 482 kts | 120° |
| 2026-04-24 04:32 | 53.62959 | -5.77760 | 41347 ft | 482 kts | 120° |
| 2026-04-24 04:32 | 53.59694 | -5.67911 | 41342 ft | 482 kts | 120° |
| 2026-04-24 04:33 | 53.56424 | -5.58069 | 41346 ft | 482 kts | 119° |
| 2026-04-24 04:33 | 53.54032 | -5.47587 | 41350 ft | 482 kts | 102° |
| 2026-04-24 04:34 | 53.53323 | -5.36387 | 41341 ft | 483 kts | 93° |
| 2026-04-24 04:34 | 53.53045 | -5.25100 | 41341 ft | 483 kts | 92° |
| 2026-04-24 04:35 | 53.52800 | -5.13814 | 41343 ft | 484 kts | 92° |
| 2026-04-24 04:35 | 53.52481 | -5.02513 | 41347 ft | 484 kts | 93° |
| 2026-04-24 04:36 | 53.52110 | -4.91205 | 41347 ft | 484 kts | 93° |
| 2026-04-24 04:36 | 53.51725 | -4.79910 | 41344 ft | 484 kts | 93° |
| 2026-04-24 04:37 | 53.51341 | -4.68607 | 41345 ft | 484 kts | 93° |
| 2026-04-24 04:37 | 53.50954 | -4.57312 | 41350 ft | 484 kts | 93° |
| 2026-04-24 04:38 | 53.50555 | -4.46010 | 41344 ft | 485 kts | 93° |
| 2026-04-24 04:38 | 53.50144 | -4.34717 | 41348 ft | 485 kts | 93° |
| 2026-04-24 04:39 | 53.49721 | -4.23422 | 41346 ft | 484 kts | 93° |
| 2026-04-24 04:39 | 53.49287 | -4.12130 | 41356 ft | 484 kts | 93° |
| 2026-04-24 04:40 | 53.48522 | -4.00888 | 41355 ft | 487 kts | 103° |
| 2026-04-24 04:40 | 53.45987 | -3.90390 | 41353 ft | 488 kts | 122° |
| 2026-04-24 04:41 | 53.42090 | -3.81077 | 41356 ft | 489 kts | 127° |
| 2026-04-24 04:41 | 53.37983 | -3.72006 | 41356 ft | 488 kts | 127° |
| 2026-04-24 04:42 | 53.33865 | -3.62952 | 41363 ft | 489 kts | 127° |
| 2026-04-24 04:42 | 53.29762 | -3.53877 | 41367 ft | 489 kts | 127° |
| 2026-04-24 04:43 | 53.25666 | -3.44806 | 41374 ft | 489 kts | 127° |
| 2026-04-24 04:43 | 53.21598 | -3.35822 | 41375 ft | 489 kts | 127° |
| 2026-04-24 04:44 | 53.17489 | -3.26783 | 41378 ft | 490 kts | 127° |
| 2026-04-24 04:44 | 53.13334 | -3.17680 | 41384 ft | 490 kts | 127° |
| 2026-04-24 04:45 | 53.09235 | -3.08732 | 41387 ft | 489 kts | 127° |
| 2026-04-24 04:45 | 53.05072 | -2.99780 | 41387 ft | 489 kts | 130° |
| 2026-04-24 04:46 | 53.00150 | -2.92012 | 41392 ft | 488 kts | 140° |
| 2026-04-24 04:46 | 52.94912 | -2.84827 | 41393 ft | 489 kts | 141° |
| 2026-04-24 04:47 | 52.89659 | -2.77688 | 41399 ft | 488 kts | 141° |
| 2026-04-24 04:47 | 52.84403 | -2.70576 | 41401 ft | 488 kts | 141° |
| 2026-04-24 04:48 | 52.79154 | -2.63496 | 41401 ft | 488 kts | 141° |
| 2026-04-24 04:48 | 52.73890 | -2.56419 | 41400 ft | 488 kts | 141° |
| 2026-04-24 04:49 | 52.69470 | -2.50495 | 41401 ft | 488 kts | 141° |
| 2026-04-24 04:49 | 52.64204 | -2.43458 | 41398 ft | 487 kts | 141° |
| 2026-04-24 04:50 | 52.58958 | -2.36469 | 41398 ft | 486 kts | 141° |
| 2026-04-24 04:50 | 52.53694 | -2.29480 | 41398 ft | 486 kts | 141° |
| 2026-04-24 04:51 | 52.48422 | -2.22501 | 41400 ft | 487 kts | 141° |
| 2026-04-24 04:51 | 52.43148 | -2.15543 | 41398 ft | 487 kts | 142° |
| 2026-04-24 04:52 | 52.37862 | -2.08590 | 41395 ft | 487 kts | 142° |
| 2026-04-24 04:52 | 52.32571 | -2.01653 | 41393 ft | 487 kts | 142° |
| 2026-04-24 04:53 | 52.27279 | -1.94737 | 41390 ft | 487 kts | 142° |
| 2026-04-24 04:53 | 52.22030 | -1.87898 | 41391 ft | 486 kts | 142° |
| 2026-04-24 04:54 | 52.16700 | -1.80974 | 41389 ft | 486 kts | 142° |
| 2026-04-24 04:54 | 52.11442 | -1.74167 | 41389 ft | 486 kts | 142° |
| 2026-04-24 04:55 | 52.06146 | -1.67332 | 41391 ft | 486 kts | 142° |
| 2026-04-24 04:55 | 52.00843 | -1.60508 | 41378 ft | 487 kts | 142° |
| 2026-04-24 04:56 | 51.95495 | -1.53648 | 41377 ft | 487 kts | 142° |
| 2026-04-24 04:56 | 51.90215 | -1.46897 | 41380 ft | 487 kts | 142° |
| 2026-04-24 04:57 | 51.84904 | -1.40126 | 41374 ft | 485 kts | 142° |
| 2026-04-24 04:57 | 51.79597 | -1.33381 | 41370 ft | 485 kts | 143° |
| 2026-04-24 04:58 | 51.74288 | -1.26656 | 41372 ft | 486 kts | 143° |
| 2026-04-24 04:58 | 51.68970 | -1.19940 | 41348 ft | 486 kts | 143° |
| 2026-04-24 04:59 | 51.63648 | -1.13239 | 41348 ft | 486 kts | 143° |
| 2026-04-24 04:59 | 51.58320 | -1.06550 | 41347 ft | 486 kts | 143° |
| 2026-04-24 05:00 | 51.52991 | -0.99880 | 41345 ft | 486 kts | 143° |
| 2026-04-24 05:00 | 51.47649 | -0.93215 | 41369 ft | 486 kts | 143° |
| 2026-04-24 05:01 | 51.42319 | -0.86586 | 41367 ft | 484 kts | 143° |
| 2026-04-24 05:01 | 51.36998 | -0.79987 | 41366 ft | 484 kts | 143° |
| 2026-04-24 05:02 | 51.31665 | -0.73393 | 41343 ft | 484 kts | 143° |
| 2026-04-24 05:02 | 51.26333 | -0.66821 | 41349 ft | 485 kts | 143° |
| 2026-04-24 05:03 | 51.20988 | -0.60251 | 41347 ft | 485 kts | 143° |
| 2026-04-24 05:03 | 51.15639 | -0.53698 | 41354 ft | 485 kts | 143° |
| 2026-04-24 05:04 | 51.10283 | -0.47156 | 41349 ft | 485 kts | 143° |
| 2026-04-24 05:04 | 51.04928 | -0.40634 | 41347 ft | 485 kts | 143° |
| 2026-04-24 05:05 | 50.99567 | -0.34124 | 41352 ft | 485 kts | 144° |
| 2026-04-24 05:05 | 50.94206 | -0.27633 | 41345 ft | 485 kts | 144° |
| 2026-04-24 05:06 | 50.88838 | -0.21153 | 41345 ft | 485 kts | 144° |
| 2026-04-24 05:06 | 50.83471 | -0.14694 | 41339 ft | 485 kts | 144° |
| 2026-04-24 05:07 | 50.78095 | -0.08244 | 41340 ft | 485 kts | 144° |
| 2026-04-24 05:07 | 50.72709 | -0.01800 | 41335 ft | 485 kts | 144° |
| 2026-04-24 05:08 | 50.67331 | 0.04615 | 41346 ft | 484 kts | 144° |
| 2026-04-24 05:08 | 50.61967 | 0.10996 | 41304 ft | 484 kts | 145° |
| 2026-04-24 05:09 | 50.59275 | 0.14190 | 41086 ft | 483 kts | 146° |
| 2026-04-24 05:09 | 50.56614 | 0.17346 | 40682 ft | 477 kts | 146° |
| 2026-04-24 05:09 | 50.53952 | 0.20495 | 39903 ft | 481 kts | 146° |
| 2026-04-24 05:09 | 50.51269 | 0.23663 | 39131 ft | 484 kts | 146° |
| 2026-04-24 05:10 | 50.48565 | 0.26852 | 38351 ft | 485 kts | 146° |
| 2026-04-24 05:10 | 50.45871 | 0.30026 | 37697 ft | 484 kts | 145° |
| 2026-04-24 05:10 | 50.43216 | 0.33151 | 37089 ft | 482 kts | 145° |
| 2026-04-24 05:10 | 50.40537 | 0.36297 | 36450 ft | 482 kts | 146° |
| 2026-04-24 05:11 | 50.37856 | 0.39443 | 35832 ft | 481 kts | 145° |
| 2026-04-24 05:11 | 50.35173 | 0.42585 | 35168 ft | 482 kts | 146° |
| 2026-04-24 05:11 | 50.32474 | 0.45741 | 34465 ft | 484 kts | 146° |
| 2026-04-24 05:11 | 50.29772 | 0.48897 | 33642 ft | 487 kts | 146° |
| 2026-04-24 05:12 | 50.27054 | 0.52066 | 32859 ft | 487 kts | 146° |
| 2026-04-24 05:12 | 50.24356 | 0.55210 | 32340 ft | 482 kts | 146° |
| 2026-04-24 05:12 | 50.21681 | 0.58322 | 31823 ft | 476 kts | 146° |
| 2026-04-24 05:12 | 50.19039 | 0.61391 | 31270 ft | 472 kts | 146° |
| 2026-04-24 05:13 | 50.13812 | 0.67448 | 30185 ft | 465 kts | 146° |
| 2026-04-24 05:13 | 50.11225 | 0.70440 | 29650 ft | 460 kts | 146° |
| 2026-04-24 05:13 | 50.08672 | 0.73388 | 29128 ft | 454 kts | 146° |
| 2026-04-24 05:14 | 50.06152 | 0.76294 | 28622 ft | 448 kts | 146° |
| 2026-04-24 05:14 | 50.03658 | 0.79167 | 28133 ft | 443 kts | 146° |
| 2026-04-24 05:14 | 50.01198 | 0.81997 | 27634 ft | 438 kts | 146° |
| 2026-04-24 05:14 | 49.98763 | 0.84793 | 27152 ft | 432 kts | 146° |
| 2026-04-24 05:15 | 49.96361 | 0.87549 | 26669 ft | 427 kts | 146° |
| 2026-04-24 05:15 | 49.93979 | 0.90278 | 26195 ft | 422 kts | 146° |
| 2026-04-24 05:15 | 49.91629 | 0.92967 | 25715 ft | 417 kts | 146° |
| 2026-04-24 05:15 | 49.89304 | 0.95625 | 25264 ft | 413 kts | 146° |
| 2026-04-24 05:16 | 49.87008 | 0.98246 | 24776 ft | 408 kts | 146° |
| 2026-04-24 05:16 | 49.84725 | 1.00849 | 24310 ft | 404 kts | 146° |
| 2026-04-24 05:16 | 49.82474 | 1.03412 | 23842 ft | 400 kts | 146° |
| 2026-04-24 05:16 | 49.80241 | 1.05951 | 23322 ft | 395 kts | 146° |
| 2026-04-24 05:17 | 49.78044 | 1.08447 | 22857 ft | 390 kts | 146° |
| 2026-04-24 05:17 | 49.75869 | 1.10915 | 22397 ft | 385 kts | 145° |
| 2026-04-24 05:17 | 49.73724 | 1.13346 | 21928 ft | 380 kts | 145° |
| 2026-04-24 05:17 | 49.71609 | 1.15739 | 21476 ft | 375 kts | 145° |
| 2026-04-24 05:18 | 49.69515 | 1.18108 | 21031 ft | 371 kts | 145° |
| 2026-04-24 05:18 | 49.67445 | 1.20447 | 20582 ft | 367 kts | 144° |
| 2026-04-24 05:18 | 49.65387 | 1.22769 | 20129 ft | 364 kts | 144° |
| 2026-04-24 05:18 | 49.63353 | 1.25062 | 19691 ft | 361 kts | 144° |
| 2026-04-24 05:19 | 49.61361 | 1.27304 | 19245 ft | 358 kts | 144° |
| 2026-04-24 05:19 | 49.59354 | 1.29562 | 18793 ft | 356 kts | 144° |
| 2026-04-24 05:19 | 49.57359 | 1.31804 | 18335 ft | 354 kts | 144° |
| 2026-04-24 05:19 | 49.55384 | 1.34023 | 17878 ft | 350 kts | 144° |
| 2026-04-24 05:20 | 49.53413 | 1.36233 | 17419 ft | 351 kts | 143° |
| 2026-04-24 05:20 | 49.51434 | 1.38451 | 16983 ft | 352 kts | 143° |
| 2026-04-24 05:20 | 49.49455 | 1.40667 | 16533 ft | 350 kts | 143° |
| 2026-04-24 05:20 | 49.47493 | 1.42861 | 16100 ft | 348 kts | 143° |
| 2026-04-24 05:21 | 49.45541 | 1.45041 | 15668 ft | 346 kts | 143° |
| 2026-04-24 05:21 | 49.43597 | 1.47210 | 15218 ft | 344 kts | 143° |
| 2026-04-24 05:21 | 49.41666 | 1.49364 | 14785 ft | 343 kts | 143° |
| 2026-04-24 05:21 | 49.39739 | 1.51510 | 14354 ft | 341 kts | 143° |
| 2026-04-24 05:22 | 49.37823 | 1.53642 | 13883 ft | 340 kts | 143° |
| 2026-04-24 05:22 | 49.35912 | 1.55766 | 13431 ft | 338 kts | 143° |
| 2026-04-24 05:22 | 49.34015 | 1.57871 | 13014 ft | 336 kts | 143° |
| 2026-04-24 05:22 | 49.32125 | 1.59967 | 12559 ft | 335 kts | 143° |
| 2026-04-24 05:23 | 49.30241 | 1.62056 | 12128 ft | 334 kts | 143° |
| 2026-04-24 05:23 | 49.28360 | 1.64138 | 11704 ft | 332 kts | 143° |
| 2026-04-24 05:23 | 49.26498 | 1.66197 | 11257 ft | 330 kts | 143° |
| 2026-04-24 05:23 | 49.24643 | 1.68247 | 10861 ft | 327 kts | 143° |
| 2026-04-24 05:24 | 49.22837 | 1.70239 | 10701 ft | 313 kts | 142° |
| 2026-04-24 05:24 | 49.21112 | 1.72140 | 10578 ft | 299 kts | 142° |
| 2026-04-24 05:24 | 49.19454 | 1.73966 | 10457 ft | 287 kts | 142° |
| 2026-04-24 05:24 | 49.17861 | 1.75719 | 10325 ft | 277 kts | 142° |
| 2026-04-24 05:25 | 49.16284 | 1.77458 | 10142 ft | 285 kts | 142° |
| 2026-04-24 05:25 | 49.14671 | 1.79235 | 9848 ft | 285 kts | 142° |
| 2026-04-24 05:25 | 49.13055 | 1.81011 | 9580 ft | 286 kts | 142° |
| 2026-04-24 05:25 | 49.11441 | 1.82783 | 9140 ft | 286 kts | 142° |
| 2026-04-24 05:26 | 49.09830 | 1.84550 | 8755 ft | 283 kts | 142° |
| 2026-04-24 05:26 | 49.08243 | 1.86288 | 8442 ft | 278 kts | 142° |
| 2026-04-24 05:26 | 49.06689 | 1.87988 | 8158 ft | 273 kts | 142° |
| 2026-04-24 05:26 | 49.05151 | 1.89672 | 7866 ft | 271 kts | 142° |
| 2026-04-24 05:27 | 49.03624 | 1.91341 | 7564 ft | 270 kts | 142° |
| 2026-04-24 05:27 | 49.02103 | 1.93004 | 7286 ft | 268 kts | 142° |
| 2026-04-24 05:27 | 49.00663 | 1.94774 | 7052 ft | 264 kts | 131° |
| 2026-04-24 05:27 | 48.99679 | 1.97095 | 6955 ft | 261 kts | 110° |
| 2026-04-24 05:28 | 48.99165 | 1.99688 | 6616 ft | 257 kts | 102° |
| 2026-04-24 05:28 | 48.98757 | 2.02336 | 6394 ft | 257 kts | 102° |
| 2026-04-24 05:28 | 48.98353 | 2.04975 | 6272 ft | 256 kts | 102° |
| 2026-04-24 05:28 | 48.97941 | 2.07614 | 6159 ft | 255 kts | 102° |
| 2026-04-24 05:29 | 48.97527 | 2.10232 | 6058 ft | 254 kts | 102° |
| 2026-04-24 05:29 | 48.97115 | 2.12850 | 5874 ft | 254 kts | 102° |
| 2026-04-24 05:29 | 48.96995 | 2.15508 | 5545 ft | 250 kts | 86° |
| 2026-04-24 05:29 | 48.97132 | 2.18093 | 5370 ft | 240 kts | 84° |
| 2026-04-24 05:30 | 48.97321 | 2.20586 | 5094 ft | 235 kts | 83° |
| 2026-04-24 05:30 | 48.97490 | 2.23012 | 4744 ft | 225 kts | 84° |
| 2026-04-24 05:30 | 48.97617 | 2.25325 | 4414 ft | 214 kts | 85° |
| 2026-04-24 05:30 | 48.97733 | 2.27522 | 4112 ft | 203 kts | 85° |
| 2026-04-24 05:31 | 48.97846 | 2.29598 | 3861 ft | 190 kts | 85° |
| 2026-04-24 05:31 | 48.97951 | 2.31536 | 3611 ft | 178 kts | 85° |
| 2026-04-24 05:31 | 48.98047 | 2.33342 | 3394 ft | 168 kts | 85° |
| 2026-04-24 05:31 | 48.98142 | 2.35092 | 3163 ft | 163 kts | 85° |
| 2026-04-24 05:32 | 48.98232 | 2.36781 | 2939 ft | 157 kts | 85° |
| 2026-04-24 05:32 | 48.98318 | 2.38400 | 2740 ft | 152 kts | 86° |
| 2026-04-24 05:32 | 48.98402 | 2.39965 | 2528 ft | 144 kts | 86° |
| 2026-04-24 05:32 | 48.98481 | 2.41428 | 2349 ft | 133 kts | 86° |
| 2026-04-24 05:33 | 48.98554 | 2.42803 | 2180 ft | 129 kts | 86° |
| 2026-04-24 05:33 | 48.98627 | 2.44163 | 2001 ft | 129 kts | 87° |
| 2026-04-24 05:33 | 48.98675 | 2.45062 | 1883 ft | 129 kts | 87° |
| 2026-04-24 05:34 | 48.98822 | 2.47791 | 1488 ft | 130 kts | 85° |
| 2026-04-24 05:34 | 48.98895 | 2.49159 | 1301 ft | 130 kts | 85° |
| 2026-04-24 05:34 | 48.98956 | 2.50534 | 1104 ft | 131 kts | 85° |
| 2026-04-24 05:34 | 48.99011 | 2.51901 | 917 ft | 133 kts | 83° |
| 2026-04-24 05:35 | 48.99101 | 2.53298 | 734 ft | 134 kts | 80° |
| 2026-04-24 05:35 | 48.99187 | 2.54704 | 580 ft | 134 kts | 83° |
| 2026-04-24 05:35 | 48.99259 | 2.56121 | 427 ft | 133 kts | 80° |
| 2026-04-24 05:35 | 48.99342 | 2.57492 | 366 ft | 120 kts | 87° |
| 2026-04-24 05:36 | 48.99395 | 2.58491 | 362 ft | 58 kts | 85° |
| 2026-04-24 05:36 | 48.99416 | 2.58887 | 363 ft | 33 kts | 85° |
| 2026-04-24 05:36 | 48.99437 | 2.59131 | 362 ft | 20 kts | 75° |
| 2026-04-24 05:36 | 48.99490 | 2.59328 | 362 ft | 20 kts | 64° |
| 2026-04-24 05:37 | 48.99545 | 2.59512 | 367 ft | 19 kts | 65° |
| 2026-04-24 05:37 | 48.99594 | 2.59659 | 369 ft | 11 kts | 49° |
| 2026-04-24 05:37 | 48.99666 | 2.59690 | 366 ft | 12 kts | 359° |
| 2026-04-24 05:37 | 48.99759 | 2.59679 | 365 ft | 15 kts | 355° |
| 2026-04-24 05:38 | 48.99872 | 2.59665 | 363 ft | 17 kts | 355° |
| 2026-04-24 05:38 | 48.99987 | 2.59652 | 364 ft | 12 kts | 355° |
| 2026-04-24 05:38 | 49.00068 | 2.59610 | 365 ft | 13 kts | 307° |
| 2026-04-24 05:38 | 49.00074 | 2.59470 | 368 ft | 15 kts | 264° |
| 2026-04-24 05:39 | 49.00065 | 2.59301 | 365 ft | 17 kts | 265° |
| 2026-04-24 05:39 | 49.00055 | 2.59108 | 367 ft | 19 kts | 265° |
| 2026-04-24 05:39 | 49.00044 | 2.58908 | 363 ft | 18 kts | 265° |
| 2026-04-24 05:39 | 49.00033 | 2.58710 | 360 ft | 20 kts | 265° |
| 2026-04-24 05:40 | 49.00024 | 2.58551 | 368 ft | 16 kts | 265° |
| 2026-04-24 05:40 | 49.00017 | 2.58395 | 367 ft | 11 kts | 271° |
| 2026-04-24 05:40 | 49.00060 | 2.58321 | 365 ft | 10 kts | 349° |
| 2026-04-24 05:40 | 49.00138 | 2.58311 | 364 ft | 12 kts | 355° |
| 2026-04-24 05:41 | 49.00209 | 2.58303 | 361 ft | 9 kts | 356° |
| 2026-04-24 05:41 | 49.00276 | 2.58294 | 366 ft | 7 kts | 348° |
| 2026-04-24 05:41 | 49.00297 | 2.58256 | 366 ft | 2 kts | 290° |
| 2026-04-24 05:41 | 49.00294 | 2.58238 | 368 ft | 6 kts | 256° |
| 2026-04-24 05:42 | 49.00279 | 2.58198 | 367 ft | 3 kts | 235° |
| 2026-04-24 05:42 | 49.00266 | 2.58170 | 369 ft | 1 kts | 233° |
| 2026-04-24 05:42 | 49.00262 | 2.58164 | 368 ft | 1 kts | 233° |
| 2026-04-24 05:42 | 49.00260 | 2.58159 | 368 ft | 0 kts | 233° |